<?xml version="1.0" encoding="UTF-8" standalone="no" ?>
<gpx xmlns="http://www.topografix.com/GPX/1/1" xmlns:xsi="http://www.w3.org/2001/XMLSchema-instance" xsi:schemaLocation="http://www.topografix.com/GPX/1/1 http://www.topografix.com/GPX/1/1/gpx.xsd" version="1.1" creator="VisuGPX - https://www.visugpx.com">
  <metadata>
    <name>83 - L - Bargème</name>
    <desc><![CDATA[83 - L - Bargème - la Costière 
2023-09-25]]></desc>
  </metadata>
  <trk>
    <name><![CDATA[BARGÈME – La Costière 2023-09-25-01]]></name>
    <trkseg>
      <trkpt lat="43.73016" lon="6.57053">
        <ele>991.1</ele>
        <time>2023-09-25T07:35:31Z</time>
      </trkpt>
      <trkpt lat="43.73017" lon="6.5705">
        <ele>1028</ele>
        <time>2023-09-25T07:35:35Z</time>
      </trkpt>
      <trkpt lat="43.73024" lon="6.57034">
        <ele>1069</ele>
        <time>2023-09-25T07:35:49Z</time>
      </trkpt>
      <trkpt lat="43.73029" lon="6.57022">
        <ele>1072</ele>
        <time>2023-09-25T07:36:01Z</time>
      </trkpt>
      <trkpt lat="43.73035" lon="6.57011">
        <ele>1072.6</ele>
        <time>2023-09-25T07:36:14Z</time>
      </trkpt>
      <trkpt lat="43.7304" lon="6.57">
        <ele>1072.4</ele>
        <time>2023-09-25T07:36:25Z</time>
      </trkpt>
      <trkpt lat="43.73045" lon="6.56989">
        <ele>1072.7</ele>
        <time>2023-09-25T07:36:36Z</time>
      </trkpt>
      <trkpt lat="43.73051" lon="6.56981">
        <ele>1072</ele>
        <time>2023-09-25T07:36:47Z</time>
      </trkpt>
      <trkpt lat="43.73059" lon="6.56972">
        <ele>1072.6</ele>
        <time>2023-09-25T07:36:59Z</time>
      </trkpt>
      <trkpt lat="43.73062" lon="6.5696">
        <ele>1073.1</ele>
        <time>2023-09-25T07:37:19Z</time>
      </trkpt>
      <trkpt lat="43.73069" lon="6.5695">
        <ele>1073.3</ele>
        <time>2023-09-25T07:37:30Z</time>
      </trkpt>
      <trkpt lat="43.73075" lon="6.5694">
        <ele>1073.4</ele>
        <time>2023-09-25T07:37:39Z</time>
      </trkpt>
      <trkpt lat="43.73081" lon="6.56931">
        <ele>1073.4</ele>
        <time>2023-09-25T07:37:48Z</time>
      </trkpt>
      <trkpt lat="43.73087" lon="6.5692">
        <ele>1073.5</ele>
        <time>2023-09-25T07:37:59Z</time>
      </trkpt>
      <trkpt lat="43.73094" lon="6.5691">
        <ele>1074.3</ele>
        <time>2023-09-25T07:38:09Z</time>
      </trkpt>
      <trkpt lat="43.73099" lon="6.569">
        <ele>1071.5</ele>
        <time>2023-09-25T07:38:18Z</time>
      </trkpt>
      <trkpt lat="43.73105" lon="6.5689">
        <ele>1073</ele>
        <time>2023-09-25T07:38:27Z</time>
      </trkpt>
      <trkpt lat="43.73112" lon="6.5688">
        <ele>1074</ele>
        <time>2023-09-25T07:38:37Z</time>
      </trkpt>
      <trkpt lat="43.73118" lon="6.5687">
        <ele>1074.4</ele>
        <time>2023-09-25T07:38:47Z</time>
      </trkpt>
      <trkpt lat="43.73124" lon="6.5686">
        <ele>1074.2</ele>
        <time>2023-09-25T07:38:56Z</time>
      </trkpt>
      <trkpt lat="43.7313" lon="6.5685">
        <ele>1074.6</ele>
        <time>2023-09-25T07:39:05Z</time>
      </trkpt>
      <trkpt lat="43.73136" lon="6.5684">
        <ele>1074.8</ele>
        <time>2023-09-25T07:39:15Z</time>
      </trkpt>
      <trkpt lat="43.73142" lon="6.5683">
        <ele>1075.9</ele>
        <time>2023-09-25T07:39:25Z</time>
      </trkpt>
      <trkpt lat="43.73148" lon="6.5682">
        <ele>1076.9</ele>
        <time>2023-09-25T07:39:35Z</time>
      </trkpt>
      <trkpt lat="43.73154" lon="6.56811">
        <ele>1077.9</ele>
        <time>2023-09-25T07:39:55Z</time>
      </trkpt>
      <trkpt lat="43.7316" lon="6.568">
        <ele>1079.1</ele>
        <time>2023-09-25T07:40:09Z</time>
      </trkpt>
      <trkpt lat="43.73166" lon="6.56791">
        <ele>1080.4</ele>
        <time>2023-09-25T07:40:18Z</time>
      </trkpt>
      <trkpt lat="43.7317" lon="6.56779">
        <ele>1081.5</ele>
        <time>2023-09-25T07:40:27Z</time>
      </trkpt>
      <trkpt lat="43.73173" lon="6.56767">
        <ele>1082.1</ele>
        <time>2023-09-25T07:40:39Z</time>
      </trkpt>
      <trkpt lat="43.73175" lon="6.56754">
        <ele>1083.2</ele>
        <time>2023-09-25T07:40:51Z</time>
      </trkpt>
      <trkpt lat="43.73175" lon="6.56742">
        <ele>1084.2</ele>
        <time>2023-09-25T07:41:02Z</time>
      </trkpt>
      <trkpt lat="43.73172" lon="6.56729">
        <ele>1084.8</ele>
        <time>2023-09-25T07:41:13Z</time>
      </trkpt>
      <trkpt lat="43.73167" lon="6.5672">
        <ele>1086.1</ele>
        <time>2023-09-25T07:41:36Z</time>
      </trkpt>
      <trkpt lat="43.73163" lon="6.56708">
        <ele>1087</ele>
        <time>2023-09-25T07:42:01Z</time>
      </trkpt>
      <trkpt lat="43.73157" lon="6.56698">
        <ele>1087.5</ele>
        <time>2023-09-25T07:42:12Z</time>
      </trkpt>
      <trkpt lat="43.73152" lon="6.56686">
        <ele>1088.6</ele>
        <time>2023-09-25T07:42:24Z</time>
      </trkpt>
      <trkpt lat="43.7315" lon="6.56673">
        <ele>1090.2</ele>
        <time>2023-09-25T07:42:35Z</time>
      </trkpt>
      <trkpt lat="43.73157" lon="6.56664">
        <ele>1091.7</ele>
        <time>2023-09-25T07:42:45Z</time>
      </trkpt>
      <trkpt lat="43.73165" lon="6.56661">
        <ele>1092.6</ele>
        <time>2023-09-25T07:42:55Z</time>
      </trkpt>
      <trkpt lat="43.73174" lon="6.56664">
        <ele>1093</ele>
        <time>2023-09-25T07:43:06Z</time>
      </trkpt>
      <trkpt lat="43.73183" lon="6.56667">
        <ele>1093.8</ele>
        <time>2023-09-25T07:43:19Z</time>
      </trkpt>
      <trkpt lat="43.73191" lon="6.56662">
        <ele>1094.3</ele>
        <time>2023-09-25T07:43:32Z</time>
      </trkpt>
      <trkpt lat="43.732" lon="6.56655">
        <ele>1093.4</ele>
        <time>2023-09-25T07:52:32Z</time>
      </trkpt>
      <trkpt lat="43.73206" lon="6.56644">
        <ele>1093.5</ele>
        <time>2023-09-25T07:52:41Z</time>
      </trkpt>
      <trkpt lat="43.73211" lon="6.56633">
        <ele>1093.1</ele>
        <time>2023-09-25T07:52:50Z</time>
      </trkpt>
      <trkpt lat="43.73216" lon="6.56622">
        <ele>1092.8</ele>
        <time>2023-09-25T07:52:58Z</time>
      </trkpt>
      <trkpt lat="43.73222" lon="6.56611">
        <ele>1092.5</ele>
        <time>2023-09-25T07:53:07Z</time>
      </trkpt>
      <trkpt lat="43.73227" lon="6.566">
        <ele>1092.3</ele>
        <time>2023-09-25T07:53:15Z</time>
      </trkpt>
      <trkpt lat="43.73232" lon="6.5659">
        <ele>1091.9</ele>
        <time>2023-09-25T07:53:23Z</time>
      </trkpt>
      <trkpt lat="43.73237" lon="6.56578">
        <ele>1091.3</ele>
        <time>2023-09-25T07:53:32Z</time>
      </trkpt>
      <trkpt lat="43.73244" lon="6.56568">
        <ele>1090.4</ele>
        <time>2023-09-25T07:53:45Z</time>
      </trkpt>
      <trkpt lat="43.73248" lon="6.56555">
        <ele>1090.1</ele>
        <time>2023-09-25T07:53:54Z</time>
      </trkpt>
      <trkpt lat="43.73252" lon="6.56544">
        <ele>1089.8</ele>
        <time>2023-09-25T07:54:02Z</time>
      </trkpt>
      <trkpt lat="43.73256" lon="6.56531">
        <ele>1089.5</ele>
        <time>2023-09-25T07:54:10Z</time>
      </trkpt>
      <trkpt lat="43.73258" lon="6.56519">
        <ele>1089.2</ele>
        <time>2023-09-25T07:54:18Z</time>
      </trkpt>
      <trkpt lat="43.73264" lon="6.56507">
        <ele>1089.1</ele>
        <time>2023-09-25T07:54:27Z</time>
      </trkpt>
      <trkpt lat="43.73274" lon="6.56504">
        <ele>1088.3</ele>
        <time>2023-09-25T07:54:37Z</time>
      </trkpt>
      <trkpt lat="43.73283" lon="6.56501">
        <ele>1087.2</ele>
        <time>2023-09-25T07:54:46Z</time>
      </trkpt>
      <trkpt lat="43.73292" lon="6.565">
        <ele>1086.6</ele>
        <time>2023-09-25T07:54:54Z</time>
      </trkpt>
      <trkpt lat="43.73301" lon="6.56496">
        <ele>1086.4</ele>
        <time>2023-09-25T07:55:02Z</time>
      </trkpt>
      <trkpt lat="43.73311" lon="6.56492">
        <ele>1086.2</ele>
        <time>2023-09-25T07:55:11Z</time>
      </trkpt>
      <trkpt lat="43.73319" lon="6.56486">
        <ele>1086.3</ele>
        <time>2023-09-25T07:55:19Z</time>
      </trkpt>
      <trkpt lat="43.73329" lon="6.56482">
        <ele>1086.3</ele>
        <time>2023-09-25T07:55:28Z</time>
      </trkpt>
      <trkpt lat="43.73337" lon="6.56475">
        <ele>1086.5</ele>
        <time>2023-09-25T07:55:37Z</time>
      </trkpt>
      <trkpt lat="43.73346" lon="6.56475">
        <ele>1086.5</ele>
        <time>2023-09-25T07:55:45Z</time>
      </trkpt>
      <trkpt lat="43.73356" lon="6.56472">
        <ele>1086.1</ele>
        <time>2023-09-25T07:55:55Z</time>
      </trkpt>
      <trkpt lat="43.73365" lon="6.56472">
        <ele>1085.8</ele>
        <time>2023-09-25T07:56:04Z</time>
      </trkpt>
      <trkpt lat="43.73375" lon="6.5647">
        <ele>1085.4</ele>
        <time>2023-09-25T07:56:13Z</time>
      </trkpt>
      <trkpt lat="43.73384" lon="6.56465">
        <ele>1085.3</ele>
        <time>2023-09-25T07:56:22Z</time>
      </trkpt>
      <trkpt lat="43.73392" lon="6.5646">
        <ele>1084.8</ele>
        <time>2023-09-25T07:56:31Z</time>
      </trkpt>
      <trkpt lat="43.734" lon="6.56454">
        <ele>1084.3</ele>
        <time>2023-09-25T07:56:40Z</time>
      </trkpt>
      <trkpt lat="43.73409" lon="6.56448">
        <ele>1083.6</ele>
        <time>2023-09-25T07:56:49Z</time>
      </trkpt>
      <trkpt lat="43.73417" lon="6.56442">
        <ele>1082.9</ele>
        <time>2023-09-25T07:56:58Z</time>
      </trkpt>
      <trkpt lat="43.73425" lon="6.56436">
        <ele>1082.1</ele>
        <time>2023-09-25T07:57:07Z</time>
      </trkpt>
      <trkpt lat="43.73433" lon="6.56429">
        <ele>1081.6</ele>
        <time>2023-09-25T07:57:16Z</time>
      </trkpt>
      <trkpt lat="43.73441" lon="6.5642">
        <ele>1081.2</ele>
        <time>2023-09-25T07:57:25Z</time>
      </trkpt>
      <trkpt lat="43.73448" lon="6.56413">
        <ele>1080.4</ele>
        <time>2023-09-25T07:57:34Z</time>
      </trkpt>
      <trkpt lat="43.73457" lon="6.56407">
        <ele>1079.6</ele>
        <time>2023-09-25T07:57:44Z</time>
      </trkpt>
      <trkpt lat="43.73465" lon="6.56399">
        <ele>1078.4</ele>
        <time>2023-09-25T07:57:53Z</time>
      </trkpt>
      <trkpt lat="43.73473" lon="6.56393">
        <ele>1077.6</ele>
        <time>2023-09-25T07:58:02Z</time>
      </trkpt>
      <trkpt lat="43.73482" lon="6.56388">
        <ele>1076.7</ele>
        <time>2023-09-25T07:58:11Z</time>
      </trkpt>
      <trkpt lat="43.73489" lon="6.56381">
        <ele>1075.9</ele>
        <time>2023-09-25T07:58:21Z</time>
      </trkpt>
      <trkpt lat="43.73498" lon="6.56375">
        <ele>1075.3</ele>
        <time>2023-09-25T07:58:31Z</time>
      </trkpt>
      <trkpt lat="43.73506" lon="6.56368">
        <ele>1074.9</ele>
        <time>2023-09-25T07:58:40Z</time>
      </trkpt>
      <trkpt lat="43.73511" lon="6.56358">
        <ele>1074.6</ele>
        <time>2023-09-25T07:58:56Z</time>
      </trkpt>
      <trkpt lat="43.73517" lon="6.56347">
        <ele>1074.2</ele>
        <time>2023-09-25T07:59:22Z</time>
      </trkpt>
      <trkpt lat="43.73525" lon="6.56343">
        <ele>1073.7</ele>
        <time>2023-09-25T07:59:30Z</time>
      </trkpt>
      <trkpt lat="43.73535" lon="6.56339">
        <ele>1073.7</ele>
        <time>2023-09-25T07:59:38Z</time>
      </trkpt>
      <trkpt lat="43.73543" lon="6.56332">
        <ele>1072.6</ele>
        <time>2023-09-25T07:59:48Z</time>
      </trkpt>
      <trkpt lat="43.73551" lon="6.56326">
        <ele>1073.4</ele>
        <time>2023-09-25T07:59:57Z</time>
      </trkpt>
      <trkpt lat="43.73559" lon="6.56318">
        <ele>1073.6</ele>
        <time>2023-09-25T08:00:07Z</time>
      </trkpt>
      <trkpt lat="43.73566" lon="6.5631">
        <ele>1073.1</ele>
        <time>2023-09-25T08:00:15Z</time>
      </trkpt>
      <trkpt lat="43.73574" lon="6.56304">
        <ele>1072.8</ele>
        <time>2023-09-25T08:00:23Z</time>
      </trkpt>
      <trkpt lat="43.73583" lon="6.563">
        <ele>1072.6</ele>
        <time>2023-09-25T08:00:31Z</time>
      </trkpt>
      <trkpt lat="43.73592" lon="6.56296">
        <ele>1072.8</ele>
        <time>2023-09-25T08:00:41Z</time>
      </trkpt>
      <trkpt lat="43.73602" lon="6.56294">
        <ele>1073</ele>
        <time>2023-09-25T08:00:50Z</time>
      </trkpt>
      <trkpt lat="43.73612" lon="6.56291">
        <ele>1072.7</ele>
        <time>2023-09-25T08:00:59Z</time>
      </trkpt>
      <trkpt lat="43.73621" lon="6.56286">
        <ele>1072.7</ele>
        <time>2023-09-25T08:01:08Z</time>
      </trkpt>
      <trkpt lat="43.73629" lon="6.56281">
        <ele>1072.7</ele>
        <time>2023-09-25T08:01:18Z</time>
      </trkpt>
      <trkpt lat="43.73638" lon="6.56277">
        <ele>1072.6</ele>
        <time>2023-09-25T08:01:27Z</time>
      </trkpt>
      <trkpt lat="43.73647" lon="6.56275">
        <ele>1072.5</ele>
        <time>2023-09-25T08:01:36Z</time>
      </trkpt>
      <trkpt lat="43.73652" lon="6.56263">
        <ele>1072.8</ele>
        <time>2023-09-25T08:01:46Z</time>
      </trkpt>
      <trkpt lat="43.73651" lon="6.5625">
        <ele>1073.1</ele>
        <time>2023-09-25T08:01:55Z</time>
      </trkpt>
      <trkpt lat="43.7365" lon="6.56237">
        <ele>1073.2</ele>
        <time>2023-09-25T08:02:03Z</time>
      </trkpt>
      <trkpt lat="43.73648" lon="6.56224">
        <ele>1073.2</ele>
        <time>2023-09-25T08:02:13Z</time>
      </trkpt>
      <trkpt lat="43.73644" lon="6.56212">
        <ele>1073.4</ele>
        <time>2023-09-25T08:02:22Z</time>
      </trkpt>
      <trkpt lat="43.73639" lon="6.562">
        <ele>1073.7</ele>
        <time>2023-09-25T08:02:32Z</time>
      </trkpt>
      <trkpt lat="43.73636" lon="6.56188">
        <ele>1073.8</ele>
        <time>2023-09-25T08:02:43Z</time>
      </trkpt>
      <trkpt lat="43.7364" lon="6.56176">
        <ele>1074.3</ele>
        <time>2023-09-25T08:02:56Z</time>
      </trkpt>
      <trkpt lat="43.73643" lon="6.56164">
        <ele>1074.4</ele>
        <time>2023-09-25T08:03:06Z</time>
      </trkpt>
      <trkpt lat="43.73646" lon="6.56151">
        <ele>1074.5</ele>
        <time>2023-09-25T08:03:16Z</time>
      </trkpt>
      <trkpt lat="43.73648" lon="6.56139">
        <ele>1074.6</ele>
        <time>2023-09-25T08:03:30Z</time>
      </trkpt>
      <trkpt lat="43.73652" lon="6.56127">
        <ele>1074.9</ele>
        <time>2023-09-25T08:03:37Z</time>
      </trkpt>
      <trkpt lat="43.73658" lon="6.56116">
        <ele>1075</ele>
        <time>2023-09-25T08:03:46Z</time>
      </trkpt>
      <trkpt lat="43.73663" lon="6.56104">
        <ele>1075.2</ele>
        <time>2023-09-25T08:03:55Z</time>
      </trkpt>
      <trkpt lat="43.73668" lon="6.56095">
        <ele>1075.4</ele>
        <time>2023-09-25T08:04:04Z</time>
      </trkpt>
      <trkpt lat="43.73674" lon="6.56084">
        <ele>1075.7</ele>
        <time>2023-09-25T08:04:13Z</time>
      </trkpt>
      <trkpt lat="43.7368" lon="6.56075">
        <ele>1076</ele>
        <time>2023-09-25T08:04:22Z</time>
      </trkpt>
      <trkpt lat="43.73687" lon="6.56065">
        <ele>1076.4</ele>
        <time>2023-09-25T08:04:36Z</time>
      </trkpt>
      <trkpt lat="43.73694" lon="6.56057">
        <ele>1076.7</ele>
        <time>2023-09-25T08:04:45Z</time>
      </trkpt>
      <trkpt lat="43.73703" lon="6.56052">
        <ele>1076.9</ele>
        <time>2023-09-25T08:04:53Z</time>
      </trkpt>
      <trkpt lat="43.73709" lon="6.56043">
        <ele>1077.3</ele>
        <time>2023-09-25T08:05:12Z</time>
      </trkpt>
      <trkpt lat="43.73718" lon="6.56037">
        <ele>1077.8</ele>
        <time>2023-09-25T08:05:21Z</time>
      </trkpt>
      <trkpt lat="43.73725" lon="6.56029">
        <ele>1078.4</ele>
        <time>2023-09-25T08:05:33Z</time>
      </trkpt>
      <trkpt lat="43.73732" lon="6.5602">
        <ele>1079</ele>
        <time>2023-09-25T08:05:49Z</time>
      </trkpt>
      <trkpt lat="43.73738" lon="6.5601">
        <ele>1079.6</ele>
        <time>2023-09-25T08:06:00Z</time>
      </trkpt>
      <trkpt lat="43.73745" lon="6.56001">
        <ele>1080.7</ele>
        <time>2023-09-25T08:06:13Z</time>
      </trkpt>
      <trkpt lat="43.73749" lon="6.5599">
        <ele>1081.3</ele>
        <time>2023-09-25T08:06:24Z</time>
      </trkpt>
      <trkpt lat="43.73753" lon="6.55979">
        <ele>1081.9</ele>
        <time>2023-09-25T08:06:33Z</time>
      </trkpt>
      <trkpt lat="43.73756" lon="6.55967">
        <ele>1082.2</ele>
        <time>2023-09-25T08:06:43Z</time>
      </trkpt>
      <trkpt lat="43.73758" lon="6.55954">
        <ele>1082.4</ele>
        <time>2023-09-25T08:06:53Z</time>
      </trkpt>
      <trkpt lat="43.73757" lon="6.55941">
        <ele>1082.6</ele>
        <time>2023-09-25T08:07:02Z</time>
      </trkpt>
      <trkpt lat="43.73756" lon="6.55928">
        <ele>1083</ele>
        <time>2023-09-25T08:07:11Z</time>
      </trkpt>
      <trkpt lat="43.73755" lon="6.55915">
        <ele>1083.6</ele>
        <time>2023-09-25T08:07:20Z</time>
      </trkpt>
      <trkpt lat="43.73755" lon="6.55901">
        <ele>1084.2</ele>
        <time>2023-09-25T08:07:29Z</time>
      </trkpt>
      <trkpt lat="43.73758" lon="6.55889">
        <ele>1084.6</ele>
        <time>2023-09-25T08:07:39Z</time>
      </trkpt>
      <trkpt lat="43.7376" lon="6.55876">
        <ele>1085</ele>
        <time>2023-09-25T08:07:48Z</time>
      </trkpt>
      <trkpt lat="43.73765" lon="6.55864">
        <ele>1085.6</ele>
        <time>2023-09-25T08:07:59Z</time>
      </trkpt>
      <trkpt lat="43.73768" lon="6.55851">
        <ele>1086.1</ele>
        <time>2023-09-25T08:08:13Z</time>
      </trkpt>
      <trkpt lat="43.73763" lon="6.5584">
        <ele>1086.5</ele>
        <time>2023-09-25T08:08:56Z</time>
      </trkpt>
      <trkpt lat="43.73755" lon="6.55836">
        <ele>1086.1</ele>
        <time>2023-09-25T08:09:27Z</time>
      </trkpt>
      <trkpt lat="43.73745" lon="6.55832">
        <ele>1086.1</ele>
        <time>2023-09-25T08:09:37Z</time>
      </trkpt>
      <trkpt lat="43.73735" lon="6.55831">
        <ele>1085.9</ele>
        <time>2023-09-25T08:09:50Z</time>
      </trkpt>
      <trkpt lat="43.73726" lon="6.5583">
        <ele>1085.8</ele>
        <time>2023-09-25T08:09:59Z</time>
      </trkpt>
      <trkpt lat="43.73716" lon="6.55828">
        <ele>1085.7</ele>
        <time>2023-09-25T08:10:09Z</time>
      </trkpt>
      <trkpt lat="43.73707" lon="6.55824">
        <ele>1085.6</ele>
        <time>2023-09-25T08:10:18Z</time>
      </trkpt>
      <trkpt lat="43.73699" lon="6.55818">
        <ele>1085.2</ele>
        <time>2023-09-25T08:10:28Z</time>
      </trkpt>
      <trkpt lat="43.73692" lon="6.5581">
        <ele>1084.7</ele>
        <time>2023-09-25T08:10:38Z</time>
      </trkpt>
      <trkpt lat="43.73684" lon="6.55803">
        <ele>1084.5</ele>
        <time>2023-09-25T08:10:47Z</time>
      </trkpt>
      <trkpt lat="43.73676" lon="6.55796">
        <ele>1084.1</ele>
        <time>2023-09-25T08:10:56Z</time>
      </trkpt>
      <trkpt lat="43.73669" lon="6.55788">
        <ele>1083.9</ele>
        <time>2023-09-25T08:11:06Z</time>
      </trkpt>
      <trkpt lat="43.73669" lon="6.55775">
        <ele>1084.3</ele>
        <time>2023-09-25T08:11:24Z</time>
      </trkpt>
      <trkpt lat="43.73677" lon="6.55782">
        <ele>1085</ele>
        <time>2023-09-25T08:16:01Z</time>
      </trkpt>
      <trkpt lat="43.73685" lon="6.55789">
        <ele>1085.3</ele>
        <time>2023-09-25T08:16:22Z</time>
      </trkpt>
      <trkpt lat="43.73694" lon="6.5579">
        <ele>1085.9</ele>
        <time>2023-09-25T08:16:32Z</time>
      </trkpt>
      <trkpt lat="43.73703" lon="6.55788">
        <ele>1086.8</ele>
        <time>2023-09-25T08:16:42Z</time>
      </trkpt>
      <trkpt lat="43.73711" lon="6.55782">
        <ele>1088</ele>
        <time>2023-09-25T08:17:00Z</time>
      </trkpt>
      <trkpt lat="43.7372" lon="6.5578">
        <ele>1089.1</ele>
        <time>2023-09-25T08:17:09Z</time>
      </trkpt>
      <trkpt lat="43.73729" lon="6.55775">
        <ele>1090.1</ele>
        <time>2023-09-25T08:17:18Z</time>
      </trkpt>
      <trkpt lat="43.73737" lon="6.55766">
        <ele>1091.1</ele>
        <time>2023-09-25T08:17:28Z</time>
      </trkpt>
      <trkpt lat="43.73742" lon="6.55755">
        <ele>1092.3</ele>
        <time>2023-09-25T08:17:41Z</time>
      </trkpt>
      <trkpt lat="43.73746" lon="6.55743">
        <ele>1093.3</ele>
        <time>2023-09-25T08:18:07Z</time>
      </trkpt>
      <trkpt lat="43.73748" lon="6.5573">
        <ele>1093.5</ele>
        <time>2023-09-25T08:18:15Z</time>
      </trkpt>
      <trkpt lat="43.7375" lon="6.55717">
        <ele>1094</ele>
        <time>2023-09-25T08:18:23Z</time>
      </trkpt>
      <trkpt lat="43.73751" lon="6.55705">
        <ele>1092.7</ele>
        <time>2023-09-25T08:18:31Z</time>
      </trkpt>
      <trkpt lat="43.73752" lon="6.55691">
        <ele>1095.1</ele>
        <time>2023-09-25T08:18:47Z</time>
      </trkpt>
      <trkpt lat="43.73753" lon="6.55678">
        <ele>1093.9</ele>
        <time>2023-09-25T08:18:58Z</time>
      </trkpt>
      <trkpt lat="43.73754" lon="6.55665">
        <ele>1095.4</ele>
        <time>2023-09-25T08:19:07Z</time>
      </trkpt>
      <trkpt lat="43.73756" lon="6.55653">
        <ele>1096.8</ele>
        <time>2023-09-25T08:19:15Z</time>
      </trkpt>
      <trkpt lat="43.73757" lon="6.5564">
        <ele>1096.9</ele>
        <time>2023-09-25T08:19:22Z</time>
      </trkpt>
      <trkpt lat="43.73758" lon="6.55627">
        <ele>1097.3</ele>
        <time>2023-09-25T08:19:30Z</time>
      </trkpt>
      <trkpt lat="43.73759" lon="6.55613">
        <ele>1098</ele>
        <time>2023-09-25T08:19:39Z</time>
      </trkpt>
      <trkpt lat="43.73756" lon="6.55601">
        <ele>1099.4</ele>
        <time>2023-09-25T08:20:21Z</time>
      </trkpt>
      <trkpt lat="43.73754" lon="6.55587">
        <ele>1099.2</ele>
        <time>2023-09-25T08:22:06Z</time>
      </trkpt>
      <trkpt lat="43.73754" lon="6.55574">
        <ele>1099.5</ele>
        <time>2023-09-25T08:22:15Z</time>
      </trkpt>
      <trkpt lat="43.73755" lon="6.55561">
        <ele>1099.7</ele>
        <time>2023-09-25T08:22:24Z</time>
      </trkpt>
      <trkpt lat="43.73757" lon="6.55548">
        <ele>1100.5</ele>
        <time>2023-09-25T08:22:37Z</time>
      </trkpt>
      <trkpt lat="43.73761" lon="6.55537">
        <ele>1101.1</ele>
        <time>2023-09-25T08:22:46Z</time>
      </trkpt>
      <trkpt lat="43.73767" lon="6.55528">
        <ele>1101.9</ele>
        <time>2023-09-25T08:22:57Z</time>
      </trkpt>
      <trkpt lat="43.73777" lon="6.55525">
        <ele>1102.8</ele>
        <time>2023-09-25T08:23:38Z</time>
      </trkpt>
      <trkpt lat="43.73785" lon="6.55529">
        <ele>1103.4</ele>
        <time>2023-09-25T08:23:50Z</time>
      </trkpt>
      <trkpt lat="43.73793" lon="6.55535">
        <ele>1105</ele>
        <time>2023-09-25T08:24:18Z</time>
      </trkpt>
      <trkpt lat="43.73798" lon="6.55546">
        <ele>1106</ele>
        <time>2023-09-25T08:24:38Z</time>
      </trkpt>
      <trkpt lat="43.738" lon="6.55559">
        <ele>1106.4</ele>
        <time>2023-09-25T08:24:49Z</time>
      </trkpt>
      <trkpt lat="43.738" lon="6.55572">
        <ele>1107</ele>
        <time>2023-09-25T08:25:01Z</time>
      </trkpt>
      <trkpt lat="43.7381" lon="6.5557">
        <ele>1108.5</ele>
        <time>2023-09-25T08:25:15Z</time>
      </trkpt>
      <trkpt lat="43.73818" lon="6.55563">
        <ele>1110</ele>
        <time>2023-09-25T08:25:27Z</time>
      </trkpt>
      <trkpt lat="43.73827" lon="6.55558">
        <ele>1111.6</ele>
        <time>2023-09-25T08:25:45Z</time>
      </trkpt>
      <trkpt lat="43.73835" lon="6.55567">
        <ele>1112.8</ele>
        <time>2023-09-25T08:26:05Z</time>
      </trkpt>
      <trkpt lat="43.73841" lon="6.55576">
        <ele>1114.5</ele>
        <time>2023-09-25T08:26:45Z</time>
      </trkpt>
      <trkpt lat="43.7385" lon="6.5558">
        <ele>1115.3</ele>
        <time>2023-09-25T08:26:57Z</time>
      </trkpt>
      <trkpt lat="43.73859" lon="6.55581">
        <ele>1116.7</ele>
        <time>2023-09-25T08:27:09Z</time>
      </trkpt>
      <trkpt lat="43.73867" lon="6.55587">
        <ele>1119.1</ele>
        <time>2023-09-25T08:27:50Z</time>
      </trkpt>
      <trkpt lat="43.73873" lon="6.55596">
        <ele>1120.3</ele>
        <time>2023-09-25T08:28:11Z</time>
      </trkpt>
      <trkpt lat="43.73876" lon="6.55609">
        <ele>1121.5</ele>
        <time>2023-09-25T08:28:23Z</time>
      </trkpt>
      <trkpt lat="43.73876" lon="6.55622">
        <ele>1122.7</ele>
        <time>2023-09-25T08:28:36Z</time>
      </trkpt>
      <trkpt lat="43.73875" lon="6.55635">
        <ele>1123.6</ele>
        <time>2023-09-25T08:28:47Z</time>
      </trkpt>
      <trkpt lat="43.73875" lon="6.55648">
        <ele>1124.4</ele>
        <time>2023-09-25T08:28:58Z</time>
      </trkpt>
      <trkpt lat="43.73876" lon="6.55661">
        <ele>1125.2</ele>
        <time>2023-09-25T08:29:10Z</time>
      </trkpt>
      <trkpt lat="43.73879" lon="6.55673">
        <ele>1126.3</ele>
        <time>2023-09-25T08:29:24Z</time>
      </trkpt>
      <trkpt lat="43.73881" lon="6.55685">
        <ele>1127.2</ele>
        <time>2023-09-25T08:29:35Z</time>
      </trkpt>
      <trkpt lat="43.73883" lon="6.55698">
        <ele>1127.9</ele>
        <time>2023-09-25T08:29:48Z</time>
      </trkpt>
      <trkpt lat="43.73886" lon="6.5571">
        <ele>1128.9</ele>
        <time>2023-09-25T08:30:00Z</time>
      </trkpt>
      <trkpt lat="43.73886" lon="6.55723">
        <ele>1130</ele>
        <time>2023-09-25T08:30:12Z</time>
      </trkpt>
      <trkpt lat="43.73889" lon="6.55736">
        <ele>1131.4</ele>
        <time>2023-09-25T08:30:26Z</time>
      </trkpt>
      <trkpt lat="43.73895" lon="6.55746">
        <ele>1132.6</ele>
        <time>2023-09-25T08:30:47Z</time>
      </trkpt>
      <trkpt lat="43.73902" lon="6.55753">
        <ele>1134.2</ele>
        <time>2023-09-25T08:31:00Z</time>
      </trkpt>
      <trkpt lat="43.7391" lon="6.5576">
        <ele>1136.5</ele>
        <time>2023-09-25T08:31:24Z</time>
      </trkpt>
      <trkpt lat="43.73916" lon="6.5577">
        <ele>1137.8</ele>
        <time>2023-09-25T08:31:39Z</time>
      </trkpt>
      <trkpt lat="43.7392" lon="6.55782">
        <ele>1138.6</ele>
        <time>2023-09-25T08:31:49Z</time>
      </trkpt>
      <trkpt lat="43.73924" lon="6.55793">
        <ele>1139.3</ele>
        <time>2023-09-25T08:32:00Z</time>
      </trkpt>
      <trkpt lat="43.73929" lon="6.55804">
        <ele>1140.1</ele>
        <time>2023-09-25T08:32:11Z</time>
      </trkpt>
      <trkpt lat="43.73934" lon="6.55815">
        <ele>1141.4</ele>
        <time>2023-09-25T08:32:21Z</time>
      </trkpt>
      <trkpt lat="43.73939" lon="6.55825">
        <ele>1142.6</ele>
        <time>2023-09-25T08:32:32Z</time>
      </trkpt>
      <trkpt lat="43.73943" lon="6.55836">
        <ele>1143.9</ele>
        <time>2023-09-25T08:32:44Z</time>
      </trkpt>
      <trkpt lat="43.7395" lon="6.55847">
        <ele>1145.3</ele>
        <time>2023-09-25T08:32:56Z</time>
      </trkpt>
      <trkpt lat="43.73957" lon="6.55855">
        <ele>1146.7</ele>
        <time>2023-09-25T08:33:10Z</time>
      </trkpt>
      <trkpt lat="43.73965" lon="6.55863">
        <ele>1147.9</ele>
        <time>2023-09-25T08:33:23Z</time>
      </trkpt>
      <trkpt lat="43.73972" lon="6.55869">
        <ele>1149.1</ele>
        <time>2023-09-25T08:33:33Z</time>
      </trkpt>
      <trkpt lat="43.7398" lon="6.55877">
        <ele>1150.7</ele>
        <time>2023-09-25T08:33:45Z</time>
      </trkpt>
      <trkpt lat="43.73988" lon="6.55884">
        <ele>1151.8</ele>
        <time>2023-09-25T08:34:17Z</time>
      </trkpt>
      <trkpt lat="43.73994" lon="6.55894">
        <ele>1152.5</ele>
        <time>2023-09-25T08:34:26Z</time>
      </trkpt>
      <trkpt lat="43.74" lon="6.55904">
        <ele>1153.4</ele>
        <time>2023-09-25T08:34:35Z</time>
      </trkpt>
      <trkpt lat="43.74005" lon="6.55915">
        <ele>1154.1</ele>
        <time>2023-09-25T08:34:47Z</time>
      </trkpt>
      <trkpt lat="43.74008" lon="6.55927">
        <ele>1155</ele>
        <time>2023-09-25T08:34:58Z</time>
      </trkpt>
      <trkpt lat="43.74013" lon="6.55939">
        <ele>1155.6</ele>
        <time>2023-09-25T08:35:08Z</time>
      </trkpt>
      <trkpt lat="43.74015" lon="6.55951">
        <ele>1156.4</ele>
        <time>2023-09-25T08:35:18Z</time>
      </trkpt>
      <trkpt lat="43.74019" lon="6.55963">
        <ele>1157</ele>
        <time>2023-09-25T08:35:27Z</time>
      </trkpt>
      <trkpt lat="43.74021" lon="6.55976">
        <ele>1157.9</ele>
        <time>2023-09-25T08:35:39Z</time>
      </trkpt>
      <trkpt lat="43.74025" lon="6.55987">
        <ele>1159.1</ele>
        <time>2023-09-25T08:35:51Z</time>
      </trkpt>
      <trkpt lat="43.74029" lon="6.55999">
        <ele>1160.3</ele>
        <time>2023-09-25T08:36:03Z</time>
      </trkpt>
      <trkpt lat="43.74032" lon="6.5601">
        <ele>1161.2</ele>
        <time>2023-09-25T08:36:19Z</time>
      </trkpt>
      <trkpt lat="43.74024" lon="6.56013">
        <ele>1162.5</ele>
        <time>2023-09-25T08:40:15Z</time>
      </trkpt>
      <trkpt lat="43.74017" lon="6.56022">
        <ele>1164.2</ele>
        <time>2023-09-25T08:40:32Z</time>
      </trkpt>
      <trkpt lat="43.74013" lon="6.56035">
        <ele>1166.1</ele>
        <time>2023-09-25T08:40:53Z</time>
      </trkpt>
      <trkpt lat="43.74011" lon="6.56047">
        <ele>1168.5</ele>
        <time>2023-09-25T08:41:09Z</time>
      </trkpt>
      <trkpt lat="43.74009" lon="6.5606">
        <ele>1171.3</ele>
        <time>2023-09-25T08:41:27Z</time>
      </trkpt>
      <trkpt lat="43.74008" lon="6.56073">
        <ele>1173.8</ele>
        <time>2023-09-25T08:41:43Z</time>
      </trkpt>
      <trkpt lat="43.74006" lon="6.56086">
        <ele>1177.1</ele>
        <time>2023-09-25T08:42:16Z</time>
      </trkpt>
      <trkpt lat="43.74008" lon="6.56099">
        <ele>1178.1</ele>
        <time>2023-09-25T08:42:30Z</time>
      </trkpt>
      <trkpt lat="43.74011" lon="6.56112">
        <ele>1180.2</ele>
        <time>2023-09-25T08:43:00Z</time>
      </trkpt>
      <trkpt lat="43.74008" lon="6.56125">
        <ele>1181.5</ele>
        <time>2023-09-25T08:43:40Z</time>
      </trkpt>
      <trkpt lat="43.74008" lon="6.56138">
        <ele>1182.5</ele>
        <time>2023-09-25T08:43:57Z</time>
      </trkpt>
      <trkpt lat="43.74008" lon="6.56151">
        <ele>1183.5</ele>
        <time>2023-09-25T08:44:12Z</time>
      </trkpt>
      <trkpt lat="43.74005" lon="6.56164">
        <ele>1184.1</ele>
        <time>2023-09-25T08:44:26Z</time>
      </trkpt>
      <trkpt lat="43.74004" lon="6.56177">
        <ele>1184.7</ele>
        <time>2023-09-25T08:44:37Z</time>
      </trkpt>
      <trkpt lat="43.74004" lon="6.5619">
        <ele>1185.3</ele>
        <time>2023-09-25T08:44:48Z</time>
      </trkpt>
      <trkpt lat="43.74006" lon="6.56203">
        <ele>1185.5</ele>
        <time>2023-09-25T08:45:01Z</time>
      </trkpt>
      <trkpt lat="43.74003" lon="6.56215">
        <ele>1185.5</ele>
        <time>2023-09-25T08:47:11Z</time>
      </trkpt>
      <trkpt lat="43.74006" lon="6.56227">
        <ele>1185.3</ele>
        <time>2023-09-25T08:47:32Z</time>
      </trkpt>
      <trkpt lat="43.74007" lon="6.5624">
        <ele>1184.6</ele>
        <time>2023-09-25T08:48:03Z</time>
      </trkpt>
      <trkpt lat="43.74009" lon="6.56253">
        <ele>1184</ele>
        <time>2023-09-25T08:48:16Z</time>
      </trkpt>
      <trkpt lat="43.7401" lon="6.56265">
        <ele>1183.3</ele>
        <time>2023-09-25T08:48:26Z</time>
      </trkpt>
      <trkpt lat="43.7401" lon="6.56279">
        <ele>1182.8</ele>
        <time>2023-09-25T08:48:33Z</time>
      </trkpt>
      <trkpt lat="43.7401" lon="6.56291">
        <ele>1182.5</ele>
        <time>2023-09-25T08:48:42Z</time>
      </trkpt>
      <trkpt lat="43.74007" lon="6.56304">
        <ele>1182.2</ele>
        <time>2023-09-25T08:49:04Z</time>
      </trkpt>
      <trkpt lat="43.74006" lon="6.56317">
        <ele>1182.1</ele>
        <time>2023-09-25T08:49:19Z</time>
      </trkpt>
      <trkpt lat="43.74003" lon="6.56329">
        <ele>1181.8</ele>
        <time>2023-09-25T08:49:30Z</time>
      </trkpt>
      <trkpt lat="43.73996" lon="6.56336">
        <ele>1181.8</ele>
        <time>2023-09-25T08:49:43Z</time>
      </trkpt>
      <trkpt lat="43.73986" lon="6.56335">
        <ele>1181</ele>
        <time>2023-09-25T08:50:25Z</time>
      </trkpt>
      <trkpt lat="43.73978" lon="6.56329">
        <ele>1179.8</ele>
        <time>2023-09-25T08:51:11Z</time>
      </trkpt>
      <trkpt lat="43.7397" lon="6.56323">
        <ele>1179</ele>
        <time>2023-09-25T08:51:29Z</time>
      </trkpt>
      <trkpt lat="43.73962" lon="6.56316">
        <ele>1177.9</ele>
        <time>2023-09-25T08:51:42Z</time>
      </trkpt>
      <trkpt lat="43.73954" lon="6.56309">
        <ele>1176.7</ele>
        <time>2023-09-25T08:51:56Z</time>
      </trkpt>
      <trkpt lat="43.73946" lon="6.56303">
        <ele>1175.9</ele>
        <time>2023-09-25T08:52:07Z</time>
      </trkpt>
      <trkpt lat="43.73939" lon="6.56294">
        <ele>1175.3</ele>
        <time>2023-09-25T08:52:19Z</time>
      </trkpt>
      <trkpt lat="43.7393" lon="6.56289">
        <ele>1174.6</ele>
        <time>2023-09-25T08:52:31Z</time>
      </trkpt>
      <trkpt lat="43.73921" lon="6.56286">
        <ele>1173.4</ele>
        <time>2023-09-25T08:52:51Z</time>
      </trkpt>
      <trkpt lat="43.73913" lon="6.56279">
        <ele>1172.1</ele>
        <time>2023-09-25T08:53:09Z</time>
      </trkpt>
      <trkpt lat="43.73904" lon="6.56275">
        <ele>1170.7</ele>
        <time>2023-09-25T08:53:29Z</time>
      </trkpt>
      <trkpt lat="43.73895" lon="6.56271">
        <ele>1169.4</ele>
        <time>2023-09-25T08:53:50Z</time>
      </trkpt>
      <trkpt lat="43.73885" lon="6.56269">
        <ele>1168.4</ele>
        <time>2023-09-25T08:54:08Z</time>
      </trkpt>
      <trkpt lat="43.73876" lon="6.56271">
        <ele>1167.5</ele>
        <time>2023-09-25T08:54:26Z</time>
      </trkpt>
      <trkpt lat="43.73867" lon="6.5627">
        <ele>1166</ele>
        <time>2023-09-25T08:54:45Z</time>
      </trkpt>
      <trkpt lat="43.73858" lon="6.56266">
        <ele>1164.6</ele>
        <time>2023-09-25T08:55:02Z</time>
      </trkpt>
      <trkpt lat="43.73853" lon="6.56255">
        <ele>1163</ele>
        <time>2023-09-25T08:55:18Z</time>
      </trkpt>
      <trkpt lat="43.73843" lon="6.56251">
        <ele>1162.9</ele>
        <time>2023-09-25T08:55:31Z</time>
      </trkpt>
      <trkpt lat="43.73834" lon="6.56251">
        <ele>1162.1</ele>
        <time>2023-09-25T08:55:50Z</time>
      </trkpt>
      <trkpt lat="43.73826" lon="6.56257">
        <ele>1161</ele>
        <time>2023-09-25T08:56:32Z</time>
      </trkpt>
      <trkpt lat="43.73818" lon="6.56263">
        <ele>1159.2</ele>
        <time>2023-09-25T08:57:00Z</time>
      </trkpt>
      <trkpt lat="43.73811" lon="6.56272">
        <ele>1157.1</ele>
        <time>2023-09-25T08:57:32Z</time>
      </trkpt>
      <trkpt lat="43.73804" lon="6.5628">
        <ele>1155.4</ele>
        <time>2023-09-25T08:58:13Z</time>
      </trkpt>
      <trkpt lat="43.73797" lon="6.56288">
        <ele>1154.1</ele>
        <time>2023-09-25T08:58:34Z</time>
      </trkpt>
      <trkpt lat="43.73792" lon="6.56299">
        <ele>1152.6</ele>
        <time>2023-09-25T08:58:51Z</time>
      </trkpt>
      <trkpt lat="43.73785" lon="6.56308">
        <ele>1151.7</ele>
        <time>2023-09-25T08:59:07Z</time>
      </trkpt>
      <trkpt lat="43.73777" lon="6.56314">
        <ele>1149.6</ele>
        <time>2023-09-25T08:59:51Z</time>
      </trkpt>
      <trkpt lat="43.73769" lon="6.56321">
        <ele>1148.2</ele>
        <time>2023-09-25T09:00:17Z</time>
      </trkpt>
      <trkpt lat="43.73761" lon="6.56325">
        <ele>1147.4</ele>
        <time>2023-09-25T09:02:15Z</time>
      </trkpt>
      <trkpt lat="43.73751" lon="6.56329">
        <ele>1146</ele>
        <time>2023-09-25T09:02:32Z</time>
      </trkpt>
      <trkpt lat="43.73743" lon="6.56334">
        <ele>1144.2</ele>
        <time>2023-09-25T09:02:57Z</time>
      </trkpt>
      <trkpt lat="43.73735" lon="6.56341">
        <ele>1142.8</ele>
        <time>2023-09-25T09:03:19Z</time>
      </trkpt>
      <trkpt lat="43.73729" lon="6.56349">
        <ele>1141.2</ele>
        <time>2023-09-25T09:03:42Z</time>
      </trkpt>
      <trkpt lat="43.73721" lon="6.56355">
        <ele>1139.8</ele>
        <time>2023-09-25T09:04:13Z</time>
      </trkpt>
      <trkpt lat="43.73712" lon="6.56362">
        <ele>1138.9</ele>
        <time>2023-09-25T09:04:32Z</time>
      </trkpt>
      <trkpt lat="43.73704" lon="6.56366">
        <ele>1137.9</ele>
        <time>2023-09-25T09:04:49Z</time>
      </trkpt>
      <trkpt lat="43.73695" lon="6.56369">
        <ele>1136.5</ele>
        <time>2023-09-25T09:05:29Z</time>
      </trkpt>
      <trkpt lat="43.73686" lon="6.56371">
        <ele>1135</ele>
        <time>2023-09-25T09:06:26Z</time>
      </trkpt>
      <trkpt lat="43.73677" lon="6.56374">
        <ele>1134</ele>
        <time>2023-09-25T09:08:14Z</time>
      </trkpt>
      <trkpt lat="43.73668" lon="6.56376">
        <ele>1133.4</ele>
        <time>2023-09-25T09:08:29Z</time>
      </trkpt>
      <trkpt lat="43.73658" lon="6.56378">
        <ele>1132.9</ele>
        <time>2023-09-25T09:08:41Z</time>
      </trkpt>
      <trkpt lat="43.73648" lon="6.56378">
        <ele>1132.5</ele>
        <time>2023-09-25T09:08:53Z</time>
      </trkpt>
      <trkpt lat="43.73639" lon="6.56379">
        <ele>1132.3</ele>
        <time>2023-09-25T09:09:06Z</time>
      </trkpt>
      <trkpt lat="43.73629" lon="6.56382">
        <ele>1132.5</ele>
        <time>2023-09-25T09:09:17Z</time>
      </trkpt>
      <trkpt lat="43.73621" lon="6.56385">
        <ele>1132.2</ele>
        <time>2023-09-25T09:09:29Z</time>
      </trkpt>
      <trkpt lat="43.73612" lon="6.56391">
        <ele>1131.4</ele>
        <time>2023-09-25T09:09:45Z</time>
      </trkpt>
      <trkpt lat="43.73603" lon="6.56396">
        <ele>1131.2</ele>
        <time>2023-09-25T09:09:59Z</time>
      </trkpt>
      <trkpt lat="43.73595" lon="6.56403">
        <ele>1129.8</ele>
        <time>2023-09-25T09:10:30Z</time>
      </trkpt>
      <trkpt lat="43.73588" lon="6.56412">
        <ele>1129.3</ele>
        <time>2023-09-25T09:10:43Z</time>
      </trkpt>
      <trkpt lat="43.73582" lon="6.5642">
        <ele>1128.1</ele>
        <time>2023-09-25T09:11:06Z</time>
      </trkpt>
      <trkpt lat="43.73573" lon="6.56426">
        <ele>1127.4</ele>
        <time>2023-09-25T09:11:19Z</time>
      </trkpt>
      <trkpt lat="43.73564" lon="6.56431">
        <ele>1125.7</ele>
        <time>2023-09-25T09:11:40Z</time>
      </trkpt>
      <trkpt lat="43.73556" lon="6.56435">
        <ele>1124.4</ele>
        <time>2023-09-25T09:11:56Z</time>
      </trkpt>
      <trkpt lat="43.73547" lon="6.56438">
        <ele>1123.3</ele>
        <time>2023-09-25T09:12:12Z</time>
      </trkpt>
      <trkpt lat="43.73538" lon="6.56443">
        <ele>1122.4</ele>
        <time>2023-09-25T09:12:31Z</time>
      </trkpt>
      <trkpt lat="43.73529" lon="6.56448">
        <ele>1122.1</ele>
        <time>2023-09-25T09:12:42Z</time>
      </trkpt>
      <trkpt lat="43.73522" lon="6.56456">
        <ele>1121.7</ele>
        <time>2023-09-25T09:12:57Z</time>
      </trkpt>
      <trkpt lat="43.73514" lon="6.56464">
        <ele>1121.9</ele>
        <time>2023-09-25T09:13:08Z</time>
      </trkpt>
      <trkpt lat="43.73505" lon="6.56468">
        <ele>1122.2</ele>
        <time>2023-09-25T09:13:18Z</time>
      </trkpt>
      <trkpt lat="43.73498" lon="6.56476">
        <ele>1122.5</ele>
        <time>2023-09-25T09:13:27Z</time>
      </trkpt>
      <trkpt lat="43.73491" lon="6.56484">
        <ele>1122.9</ele>
        <time>2023-09-25T09:13:39Z</time>
      </trkpt>
      <trkpt lat="43.73483" lon="6.56492">
        <ele>1122.8</ele>
        <time>2023-09-25T09:13:50Z</time>
      </trkpt>
      <trkpt lat="43.73474" lon="6.56498">
        <ele>1122.5</ele>
        <time>2023-09-25T09:14:02Z</time>
      </trkpt>
      <trkpt lat="43.73466" lon="6.56504">
        <ele>1122.1</ele>
        <time>2023-09-25T09:14:12Z</time>
      </trkpt>
      <trkpt lat="43.73457" lon="6.56509">
        <ele>1121.5</ele>
        <time>2023-09-25T09:14:22Z</time>
      </trkpt>
      <trkpt lat="43.73449" lon="6.56513">
        <ele>1121</ele>
        <time>2023-09-25T09:14:37Z</time>
      </trkpt>
      <trkpt lat="43.7344" lon="6.56517">
        <ele>1120.1</ele>
        <time>2023-09-25T09:14:51Z</time>
      </trkpt>
      <trkpt lat="43.73431" lon="6.56522">
        <ele>1118.9</ele>
        <time>2023-09-25T09:15:08Z</time>
      </trkpt>
      <trkpt lat="43.73423" lon="6.5653">
        <ele>1118.4</ele>
        <time>2023-09-25T09:15:29Z</time>
      </trkpt>
      <trkpt lat="43.73418" lon="6.56541">
        <ele>1118.4</ele>
        <time>2023-09-25T09:15:41Z</time>
      </trkpt>
      <trkpt lat="43.7341" lon="6.56548">
        <ele>1118.4</ele>
        <time>2023-09-25T09:15:54Z</time>
      </trkpt>
      <trkpt lat="43.73407" lon="6.56561">
        <ele>1118</ele>
        <time>2023-09-25T09:16:12Z</time>
      </trkpt>
      <trkpt lat="43.73401" lon="6.56569">
        <ele>1116.4</ele>
        <time>2023-09-25T09:17:25Z</time>
      </trkpt>
      <trkpt lat="43.73397" lon="6.56581">
        <ele>1115.5</ele>
        <time>2023-09-25T09:18:02Z</time>
      </trkpt>
      <trkpt lat="43.73396" lon="6.56593">
        <ele>1113.4</ele>
        <time>2023-09-25T09:18:32Z</time>
      </trkpt>
      <trkpt lat="43.73389" lon="6.56601">
        <ele>1111.7</ele>
        <time>2023-09-25T09:18:56Z</time>
      </trkpt>
      <trkpt lat="43.73382" lon="6.56609">
        <ele>1109.9</ele>
        <time>2023-09-25T09:19:15Z</time>
      </trkpt>
      <trkpt lat="43.73376" lon="6.56619">
        <ele>1108.4</ele>
        <time>2023-09-25T09:19:32Z</time>
      </trkpt>
      <trkpt lat="43.7337" lon="6.5663">
        <ele>1106.7</ele>
        <time>2023-09-25T09:19:49Z</time>
      </trkpt>
      <trkpt lat="43.73366" lon="6.56641">
        <ele>1105.2</ele>
        <time>2023-09-25T09:20:14Z</time>
      </trkpt>
      <trkpt lat="43.73363" lon="6.56654">
        <ele>1104.4</ele>
        <time>2023-09-25T09:20:30Z</time>
      </trkpt>
      <trkpt lat="43.73359" lon="6.56665">
        <ele>1103.2</ele>
        <time>2023-09-25T09:20:45Z</time>
      </trkpt>
      <trkpt lat="43.73353" lon="6.56674">
        <ele>1101.7</ele>
        <time>2023-09-25T09:21:07Z</time>
      </trkpt>
      <trkpt lat="43.73346" lon="6.56684">
        <ele>1101.3</ele>
        <time>2023-09-25T09:21:25Z</time>
      </trkpt>
      <trkpt lat="43.73339" lon="6.56692">
        <ele>1100.8</ele>
        <time>2023-09-25T09:21:44Z</time>
      </trkpt>
      <trkpt lat="43.73332" lon="6.567">
        <ele>1100.1</ele>
        <time>2023-09-25T09:21:58Z</time>
      </trkpt>
      <trkpt lat="43.73326" lon="6.5671">
        <ele>1099.6</ele>
        <time>2023-09-25T09:22:14Z</time>
      </trkpt>
      <trkpt lat="43.73321" lon="6.56721">
        <ele>1098.5</ele>
        <time>2023-09-25T09:22:38Z</time>
      </trkpt>
      <trkpt lat="43.73314" lon="6.5673">
        <ele>1097.9</ele>
        <time>2023-09-25T09:22:56Z</time>
      </trkpt>
      <trkpt lat="43.73308" lon="6.5674">
        <ele>1097</ele>
        <time>2023-09-25T09:23:10Z</time>
      </trkpt>
      <trkpt lat="43.73302" lon="6.56749">
        <ele>1095.5</ele>
        <time>2023-09-25T09:23:23Z</time>
      </trkpt>
      <trkpt lat="43.73296" lon="6.56759">
        <ele>1094.9</ele>
        <time>2023-09-25T09:23:35Z</time>
      </trkpt>
      <trkpt lat="43.7329" lon="6.56769">
        <ele>1094.2</ele>
        <time>2023-09-25T09:23:47Z</time>
      </trkpt>
      <trkpt lat="43.73283" lon="6.56779">
        <ele>1092.9</ele>
        <time>2023-09-25T09:24:02Z</time>
      </trkpt>
      <trkpt lat="43.73276" lon="6.56787">
        <ele>1091.3</ele>
        <time>2023-09-25T09:24:23Z</time>
      </trkpt>
      <trkpt lat="43.73268" lon="6.56792">
        <ele>1090.8</ele>
        <time>2023-09-25T09:24:41Z</time>
      </trkpt>
      <trkpt lat="43.73261" lon="6.56801">
        <ele>1089.8</ele>
        <time>2023-09-25T09:24:54Z</time>
      </trkpt>
      <trkpt lat="43.73252" lon="6.56806">
        <ele>1088.7</ele>
        <time>2023-09-25T09:25:07Z</time>
      </trkpt>
      <trkpt lat="43.73244" lon="6.56812">
        <ele>1087.6</ele>
        <time>2023-09-25T09:25:23Z</time>
      </trkpt>
      <trkpt lat="43.73235" lon="6.56816">
        <ele>1086.8</ele>
        <time>2023-09-25T09:25:38Z</time>
      </trkpt>
      <trkpt lat="43.73226" lon="6.5682">
        <ele>1085.9</ele>
        <time>2023-09-25T09:25:49Z</time>
      </trkpt>
      <trkpt lat="43.73217" lon="6.56825">
        <ele>1084.8</ele>
        <time>2023-09-25T09:26:01Z</time>
      </trkpt>
      <trkpt lat="43.73209" lon="6.56831">
        <ele>1083.8</ele>
        <time>2023-09-25T09:26:14Z</time>
      </trkpt>
      <trkpt lat="43.73217" lon="6.56836">
        <ele>1082.7</ele>
        <time>2023-09-25T09:27:36Z</time>
      </trkpt>
      <trkpt lat="43.73208" lon="6.56837">
        <ele>1082.1</ele>
        <time>2023-09-25T09:27:51Z</time>
      </trkpt>
      <trkpt lat="43.73199" lon="6.56835">
        <ele>1083.4</ele>
        <time>2023-09-25T09:28:08Z</time>
      </trkpt>
      <trkpt lat="43.73208" lon="6.56835">
        <ele>1083.3</ele>
        <time>2023-09-25T09:29:03Z</time>
      </trkpt>
      <trkpt lat="43.73218" lon="6.56834">
        <ele>1083.1</ele>
        <time>2023-09-25T09:29:12Z</time>
      </trkpt>
      <trkpt lat="43.73227" lon="6.56832">
        <ele>1082.8</ele>
        <time>2023-09-25T09:29:21Z</time>
      </trkpt>
      <trkpt lat="43.73237" lon="6.56832">
        <ele>1082.5</ele>
        <time>2023-09-25T09:29:29Z</time>
      </trkpt>
      <trkpt lat="43.73246" lon="6.56831">
        <ele>1082</ele>
        <time>2023-09-25T09:29:37Z</time>
      </trkpt>
      <trkpt lat="43.73255" lon="6.5683">
        <ele>1081.8</ele>
        <time>2023-09-25T09:29:45Z</time>
      </trkpt>
      <trkpt lat="43.73265" lon="6.56828">
        <ele>1081.3</ele>
        <time>2023-09-25T09:29:53Z</time>
      </trkpt>
      <trkpt lat="43.73274" lon="6.56827">
        <ele>1080.5</ele>
        <time>2023-09-25T09:30:02Z</time>
      </trkpt>
      <trkpt lat="43.73283" lon="6.56824">
        <ele>1079.5</ele>
        <time>2023-09-25T09:30:13Z</time>
      </trkpt>
      <trkpt lat="43.73293" lon="6.56825">
        <ele>1078.2</ele>
        <time>2023-09-25T09:30:25Z</time>
      </trkpt>
      <trkpt lat="43.73302" lon="6.56823">
        <ele>1076.9</ele>
        <time>2023-09-25T09:30:46Z</time>
      </trkpt>
      <trkpt lat="43.73312" lon="6.56821">
        <ele>1076.2</ele>
        <time>2023-09-25T09:31:03Z</time>
      </trkpt>
      <trkpt lat="43.73321" lon="6.56822">
        <ele>1075.8</ele>
        <time>2023-09-25T09:31:47Z</time>
      </trkpt>
      <trkpt lat="43.7333" lon="6.56822">
        <ele>1075.8</ele>
        <time>2023-09-25T09:31:57Z</time>
      </trkpt>
      <trkpt lat="43.73339" lon="6.56825">
        <ele>1075.8</ele>
        <time>2023-09-25T09:32:06Z</time>
      </trkpt>
      <trkpt lat="43.73348" lon="6.56826">
        <ele>1076</ele>
        <time>2023-09-25T09:32:19Z</time>
      </trkpt>
      <trkpt lat="43.73358" lon="6.5683">
        <ele>1075.8</ele>
        <time>2023-09-25T09:32:34Z</time>
      </trkpt>
      <trkpt lat="43.73366" lon="6.56836">
        <ele>1075.3</ele>
        <time>2023-09-25T09:32:43Z</time>
      </trkpt>
      <trkpt lat="43.73375" lon="6.56839">
        <ele>1074.8</ele>
        <time>2023-09-25T09:32:54Z</time>
      </trkpt>
      <trkpt lat="43.73385" lon="6.5684">
        <ele>1073.9</ele>
        <time>2023-09-25T09:33:04Z</time>
      </trkpt>
      <trkpt lat="43.73394" lon="6.56838">
        <ele>1073.5</ele>
        <time>2023-09-25T09:33:18Z</time>
      </trkpt>
      <trkpt lat="43.73403" lon="6.56834">
        <ele>1072.6</ele>
        <time>2023-09-25T09:33:33Z</time>
      </trkpt>
      <trkpt lat="43.73412" lon="6.56829">
        <ele>1075.2</ele>
        <time>2023-09-25T09:33:42Z</time>
      </trkpt>
      <trkpt lat="43.73421" lon="6.56825">
        <ele>1075.1</ele>
        <time>2023-09-25T09:33:51Z</time>
      </trkpt>
      <trkpt lat="43.7343" lon="6.5682">
        <ele>1075.3</ele>
        <time>2023-09-25T09:34:00Z</time>
      </trkpt>
      <trkpt lat="43.73438" lon="6.56812">
        <ele>1074.7</ele>
        <time>2023-09-25T09:34:10Z</time>
      </trkpt>
      <trkpt lat="43.73446" lon="6.56805">
        <ele>1074.3</ele>
        <time>2023-09-25T09:34:22Z</time>
      </trkpt>
      <trkpt lat="43.73451" lon="6.56815">
        <ele>1074.6</ele>
        <time>2023-09-25T09:34:46Z</time>
      </trkpt>
      <trkpt lat="43.73454" lon="6.56828">
        <ele>1075.1</ele>
        <time>2023-09-25T09:34:57Z</time>
      </trkpt>
      <trkpt lat="43.7345" lon="6.5684">
        <ele>1076</ele>
        <time>2023-09-25T09:35:08Z</time>
      </trkpt>
      <trkpt lat="43.73445" lon="6.56851">
        <ele>1076.1</ele>
        <time>2023-09-25T09:35:21Z</time>
      </trkpt>
      <trkpt lat="43.7344" lon="6.56862">
        <ele>1076.1</ele>
        <time>2023-09-25T09:35:36Z</time>
      </trkpt>
      <trkpt lat="43.73439" lon="6.56875">
        <ele>1076.3</ele>
        <time>2023-09-25T09:35:45Z</time>
      </trkpt>
      <trkpt lat="43.73438" lon="6.56888">
        <ele>1076.8</ele>
        <time>2023-09-25T09:35:56Z</time>
      </trkpt>
      <trkpt lat="43.73438" lon="6.569">
        <ele>1077.4</ele>
        <time>2023-09-25T09:36:15Z</time>
      </trkpt>
      <trkpt lat="43.73438" lon="6.56913">
        <ele>1077.5</ele>
        <time>2023-09-25T09:36:24Z</time>
      </trkpt>
      <trkpt lat="43.73438" lon="6.56926">
        <ele>1077.4</ele>
        <time>2023-09-25T09:36:33Z</time>
      </trkpt>
      <trkpt lat="43.73435" lon="6.56939">
        <ele>1077.4</ele>
        <time>2023-09-25T09:36:43Z</time>
      </trkpt>
      <trkpt lat="43.73435" lon="6.56952">
        <ele>1077.2</ele>
        <time>2023-09-25T09:36:51Z</time>
      </trkpt>
      <trkpt lat="43.73435" lon="6.56965">
        <ele>1077.1</ele>
        <time>2023-09-25T09:36:58Z</time>
      </trkpt>
      <trkpt lat="43.73432" lon="6.56978">
        <ele>1077</ele>
        <time>2023-09-25T09:37:08Z</time>
      </trkpt>
      <trkpt lat="43.7343" lon="6.56991">
        <ele>1077.4</ele>
        <time>2023-09-25T09:37:17Z</time>
      </trkpt>
      <trkpt lat="43.73429" lon="6.57004">
        <ele>1077.6</ele>
        <time>2023-09-25T09:37:23Z</time>
      </trkpt>
      <trkpt lat="43.73427" lon="6.57018">
        <ele>1077.6</ele>
        <time>2023-09-25T09:37:30Z</time>
      </trkpt>
      <trkpt lat="43.73426" lon="6.5703">
        <ele>1077.7</ele>
        <time>2023-09-25T09:37:37Z</time>
      </trkpt>
      <trkpt lat="43.73424" lon="6.57044">
        <ele>1077.6</ele>
        <time>2023-09-25T09:37:45Z</time>
      </trkpt>
      <trkpt lat="43.73423" lon="6.57057">
        <ele>1077.2</ele>
        <time>2023-09-25T09:37:53Z</time>
      </trkpt>
      <trkpt lat="43.73422" lon="6.57071">
        <ele>1076.9</ele>
        <time>2023-09-25T09:38:01Z</time>
      </trkpt>
      <trkpt lat="43.7342" lon="6.57083">
        <ele>1076.7</ele>
        <time>2023-09-25T09:38:10Z</time>
      </trkpt>
      <trkpt lat="43.7342" lon="6.57096">
        <ele>1077</ele>
        <time>2023-09-25T09:38:30Z</time>
      </trkpt>
      <trkpt lat="43.73419" lon="6.57109">
        <ele>1076.6</ele>
        <time>2023-09-25T09:38:43Z</time>
      </trkpt>
      <trkpt lat="43.73419" lon="6.57121">
        <ele>1076.8</ele>
        <time>2023-09-25T09:38:54Z</time>
      </trkpt>
      <trkpt lat="43.7342" lon="6.57135">
        <ele>1076.7</ele>
        <time>2023-09-25T09:39:04Z</time>
      </trkpt>
      <trkpt lat="43.7342" lon="6.57148">
        <ele>1076.6</ele>
        <time>2023-09-25T09:39:12Z</time>
      </trkpt>
      <trkpt lat="43.73421" lon="6.57161">
        <ele>1076.6</ele>
        <time>2023-09-25T09:39:21Z</time>
      </trkpt>
      <trkpt lat="43.73423" lon="6.57174">
        <ele>1076.6</ele>
        <time>2023-09-25T09:39:46Z</time>
      </trkpt>
      <trkpt lat="43.73424" lon="6.57187">
        <ele>1076.4</ele>
        <time>2023-09-25T09:39:56Z</time>
      </trkpt>
      <trkpt lat="43.73424" lon="6.572">
        <ele>1076.6</ele>
        <time>2023-09-25T09:40:06Z</time>
      </trkpt>
      <trkpt lat="43.73426" lon="6.57213">
        <ele>1076.9</ele>
        <time>2023-09-25T09:40:13Z</time>
      </trkpt>
      <trkpt lat="43.73426" lon="6.57226">
        <ele>1076.6</ele>
        <time>2023-09-25T09:40:22Z</time>
      </trkpt>
      <trkpt lat="43.73427" lon="6.57239">
        <ele>1076.1</ele>
        <time>2023-09-25T09:40:31Z</time>
      </trkpt>
      <trkpt lat="43.73429" lon="6.57252">
        <ele>1075.9</ele>
        <time>2023-09-25T09:40:41Z</time>
      </trkpt>
      <trkpt lat="43.73431" lon="6.57264">
        <ele>1075.8</ele>
        <time>2023-09-25T09:40:50Z</time>
      </trkpt>
      <trkpt lat="43.7343" lon="6.57278">
        <ele>1075.3</ele>
        <time>2023-09-25T09:41:00Z</time>
      </trkpt>
      <trkpt lat="43.73431" lon="6.57291">
        <ele>1074.2</ele>
        <time>2023-09-25T09:41:14Z</time>
      </trkpt>
      <trkpt lat="43.73435" lon="6.57302">
        <ele>1073.3</ele>
        <time>2023-09-25T09:41:38Z</time>
      </trkpt>
      <trkpt lat="43.7344" lon="6.57313">
        <ele>1074</ele>
        <time>2023-09-25T09:41:52Z</time>
      </trkpt>
      <trkpt lat="43.73444" lon="6.57325">
        <ele>1073.7</ele>
        <time>2023-09-25T09:42:02Z</time>
      </trkpt>
      <trkpt lat="43.73449" lon="6.57336">
        <ele>1073.8</ele>
        <time>2023-09-25T09:42:11Z</time>
      </trkpt>
      <trkpt lat="43.73452" lon="6.5735">
        <ele>1073.7</ele>
        <time>2023-09-25T09:42:20Z</time>
      </trkpt>
      <trkpt lat="43.73452" lon="6.57363">
        <ele>1072.6</ele>
        <time>2023-09-25T09:42:29Z</time>
      </trkpt>
      <trkpt lat="43.73453" lon="6.57378">
        <ele>1071.9</ele>
        <time>2023-09-25T09:42:39Z</time>
      </trkpt>
      <trkpt lat="43.73454" lon="6.57391">
        <ele>1072.6</ele>
        <time>2023-09-25T09:42:47Z</time>
      </trkpt>
      <trkpt lat="43.73457" lon="6.57404">
        <ele>1073.1</ele>
        <time>2023-09-25T09:42:56Z</time>
      </trkpt>
      <trkpt lat="43.73462" lon="6.57416">
        <ele>1073.1</ele>
        <time>2023-09-25T09:43:06Z</time>
      </trkpt>
      <trkpt lat="43.73465" lon="6.57428">
        <ele>1072.8</ele>
        <time>2023-09-25T09:43:15Z</time>
      </trkpt>
      <trkpt lat="43.73468" lon="6.5744">
        <ele>1072.6</ele>
        <time>2023-09-25T09:43:23Z</time>
      </trkpt>
      <trkpt lat="43.73472" lon="6.57452">
        <ele>1072.5</ele>
        <time>2023-09-25T09:43:32Z</time>
      </trkpt>
      <trkpt lat="43.73475" lon="6.57465">
        <ele>1072.4</ele>
        <time>2023-09-25T09:43:41Z</time>
      </trkpt>
      <trkpt lat="43.73478" lon="6.57476">
        <ele>1072.2</ele>
        <time>2023-09-25T09:43:50Z</time>
      </trkpt>
      <trkpt lat="43.73481" lon="6.57489">
        <ele>1072.2</ele>
        <time>2023-09-25T09:43:59Z</time>
      </trkpt>
      <trkpt lat="43.7348" lon="6.57502">
        <ele>1072</ele>
        <time>2023-09-25T09:44:08Z</time>
      </trkpt>
      <trkpt lat="43.7348" lon="6.57514">
        <ele>1071.8</ele>
        <time>2023-09-25T09:44:19Z</time>
      </trkpt>
      <trkpt lat="43.73483" lon="6.57527">
        <ele>1071.7</ele>
        <time>2023-09-25T09:44:28Z</time>
      </trkpt>
      <trkpt lat="43.73484" lon="6.5754">
        <ele>1071.6</ele>
        <time>2023-09-25T09:44:37Z</time>
      </trkpt>
      <trkpt lat="43.73484" lon="6.57553">
        <ele>1071.6</ele>
        <time>2023-09-25T09:44:45Z</time>
      </trkpt>
      <trkpt lat="43.73485" lon="6.57565">
        <ele>1071.7</ele>
        <time>2023-09-25T09:44:54Z</time>
      </trkpt>
      <trkpt lat="43.73486" lon="6.57579">
        <ele>1071.7</ele>
        <time>2023-09-25T09:45:04Z</time>
      </trkpt>
      <trkpt lat="43.73485" lon="6.57592">
        <ele>1071.7</ele>
        <time>2023-09-25T09:45:13Z</time>
      </trkpt>
      <trkpt lat="43.73484" lon="6.57606">
        <ele>1071.6</ele>
        <time>2023-09-25T09:45:23Z</time>
      </trkpt>
      <trkpt lat="43.73485" lon="6.57618">
        <ele>1072.3</ele>
        <time>2023-09-25T09:45:37Z</time>
      </trkpt>
      <trkpt lat="43.73485" lon="6.57631">
        <ele>1072.3</ele>
        <time>2023-09-25T09:45:47Z</time>
      </trkpt>
      <trkpt lat="43.73484" lon="6.57645">
        <ele>1072.3</ele>
        <time>2023-09-25T09:45:59Z</time>
      </trkpt>
      <trkpt lat="43.73486" lon="6.57658">
        <ele>1072.3</ele>
        <time>2023-09-25T09:46:08Z</time>
      </trkpt>
      <trkpt lat="43.73486" lon="6.57671">
        <ele>1072.3</ele>
        <time>2023-09-25T09:46:18Z</time>
      </trkpt>
      <trkpt lat="43.73487" lon="6.57684">
        <ele>1072.4</ele>
        <time>2023-09-25T09:46:30Z</time>
      </trkpt>
      <trkpt lat="43.73491" lon="6.57695">
        <ele>1072.8</ele>
        <time>2023-09-25T09:46:41Z</time>
      </trkpt>
      <trkpt lat="43.73494" lon="6.57707">
        <ele>1072.9</ele>
        <time>2023-09-25T09:46:51Z</time>
      </trkpt>
      <trkpt lat="43.73498" lon="6.5772">
        <ele>1072.5</ele>
        <time>2023-09-25T09:47:01Z</time>
      </trkpt>
      <trkpt lat="43.735" lon="6.57732">
        <ele>1071.9</ele>
        <time>2023-09-25T09:47:11Z</time>
      </trkpt>
      <trkpt lat="43.73504" lon="6.57743">
        <ele>1071</ele>
        <time>2023-09-25T09:47:22Z</time>
      </trkpt>
      <trkpt lat="43.73509" lon="6.57755">
        <ele>1069.8</ele>
        <time>2023-09-25T09:47:32Z</time>
      </trkpt>
      <trkpt lat="43.73514" lon="6.57767">
        <ele>1069.1</ele>
        <time>2023-09-25T09:47:41Z</time>
      </trkpt>
      <trkpt lat="43.73518" lon="6.57779">
        <ele>1068.7</ele>
        <time>2023-09-25T09:47:51Z</time>
      </trkpt>
      <trkpt lat="43.73522" lon="6.57791">
        <ele>1068.5</ele>
        <time>2023-09-25T09:48:00Z</time>
      </trkpt>
      <trkpt lat="43.73526" lon="6.57804">
        <ele>1067.5</ele>
        <time>2023-09-25T09:48:10Z</time>
      </trkpt>
      <trkpt lat="43.7353" lon="6.57817">
        <ele>1068.7</ele>
        <time>2023-09-25T09:48:20Z</time>
      </trkpt>
      <trkpt lat="43.73532" lon="6.57829">
        <ele>1068.8</ele>
        <time>2023-09-25T09:48:30Z</time>
      </trkpt>
      <trkpt lat="43.73534" lon="6.57841">
        <ele>1068.8</ele>
        <time>2023-09-25T09:48:39Z</time>
      </trkpt>
      <trkpt lat="43.73536" lon="6.57855">
        <ele>1068.8</ele>
        <time>2023-09-25T09:48:49Z</time>
      </trkpt>
      <trkpt lat="43.73537" lon="6.57868">
        <ele>1068.6</ele>
        <time>2023-09-25T09:48:59Z</time>
      </trkpt>
      <trkpt lat="43.73537" lon="6.57881">
        <ele>1068.4</ele>
        <time>2023-09-25T09:49:14Z</time>
      </trkpt>
      <trkpt lat="43.73537" lon="6.57894">
        <ele>1068.5</ele>
        <time>2023-09-25T09:49:33Z</time>
      </trkpt>
      <trkpt lat="43.73537" lon="6.57907">
        <ele>1068.5</ele>
        <time>2023-09-25T09:49:44Z</time>
      </trkpt>
      <trkpt lat="43.73536" lon="6.5792">
        <ele>1068.4</ele>
        <time>2023-09-25T09:49:54Z</time>
      </trkpt>
      <trkpt lat="43.73534" lon="6.57933">
        <ele>1068</ele>
        <time>2023-09-25T09:50:44Z</time>
      </trkpt>
      <trkpt lat="43.73534" lon="6.57946">
        <ele>1068.2</ele>
        <time>2023-09-25T09:53:18Z</time>
      </trkpt>
      <trkpt lat="43.73534" lon="6.57959">
        <ele>1068.6</ele>
        <time>2023-09-25T09:53:28Z</time>
      </trkpt>
      <trkpt lat="43.73533" lon="6.57972">
        <ele>1068.4</ele>
        <time>2023-09-25T09:53:37Z</time>
      </trkpt>
      <trkpt lat="43.73532" lon="6.57985">
        <ele>1068.4</ele>
        <time>2023-09-25T09:53:46Z</time>
      </trkpt>
      <trkpt lat="43.73532" lon="6.57999">
        <ele>1068.5</ele>
        <time>2023-09-25T09:53:56Z</time>
      </trkpt>
      <trkpt lat="43.73533" lon="6.58013">
        <ele>1068.6</ele>
        <time>2023-09-25T09:54:05Z</time>
      </trkpt>
      <trkpt lat="43.73532" lon="6.58026">
        <ele>1068.7</ele>
        <time>2023-09-25T09:54:14Z</time>
      </trkpt>
      <trkpt lat="43.73532" lon="6.5804">
        <ele>1068.9</ele>
        <time>2023-09-25T09:54:23Z</time>
      </trkpt>
      <trkpt lat="43.73531" lon="6.58053">
        <ele>1068.3</ele>
        <time>2023-09-25T09:54:32Z</time>
      </trkpt>
      <trkpt lat="43.7353" lon="6.58066">
        <ele>1068.1</ele>
        <time>2023-09-25T09:54:40Z</time>
      </trkpt>
      <trkpt lat="43.73529" lon="6.58078">
        <ele>1068.2</ele>
        <time>2023-09-25T09:54:48Z</time>
      </trkpt>
      <trkpt lat="43.73529" lon="6.58091">
        <ele>1067.3</ele>
        <time>2023-09-25T09:54:56Z</time>
      </trkpt>
      <trkpt lat="43.73528" lon="6.58103">
        <ele>1068.4</ele>
        <time>2023-09-25T09:55:05Z</time>
      </trkpt>
      <trkpt lat="43.73526" lon="6.58115">
        <ele>1068.3</ele>
        <time>2023-09-25T09:55:13Z</time>
      </trkpt>
      <trkpt lat="43.73525" lon="6.58128">
        <ele>1068.5</ele>
        <time>2023-09-25T09:55:21Z</time>
      </trkpt>
      <trkpt lat="43.73524" lon="6.5814">
        <ele>1068.2</ele>
        <time>2023-09-25T09:55:30Z</time>
      </trkpt>
      <trkpt lat="43.73523" lon="6.58153">
        <ele>1067.6</ele>
        <time>2023-09-25T09:55:39Z</time>
      </trkpt>
      <trkpt lat="43.73523" lon="6.58167">
        <ele>1067.4</ele>
        <time>2023-09-25T09:55:49Z</time>
      </trkpt>
      <trkpt lat="43.73522" lon="6.58179">
        <ele>1067.1</ele>
        <time>2023-09-25T09:55:58Z</time>
      </trkpt>
      <trkpt lat="43.73521" lon="6.58192">
        <ele>1067</ele>
        <time>2023-09-25T09:56:08Z</time>
      </trkpt>
      <trkpt lat="43.73521" lon="6.58205">
        <ele>1066.9</ele>
        <time>2023-09-25T09:56:17Z</time>
      </trkpt>
      <trkpt lat="43.73521" lon="6.58217">
        <ele>1066.9</ele>
        <time>2023-09-25T09:56:26Z</time>
      </trkpt>
      <trkpt lat="43.7352" lon="6.58231">
        <ele>1066.3</ele>
        <time>2023-09-25T09:56:36Z</time>
      </trkpt>
      <trkpt lat="43.7352" lon="6.58245">
        <ele>1065.9</ele>
        <time>2023-09-25T09:56:45Z</time>
      </trkpt>
      <trkpt lat="43.73521" lon="6.58258">
        <ele>1065.6</ele>
        <time>2023-09-25T09:56:54Z</time>
      </trkpt>
      <trkpt lat="43.73522" lon="6.58272">
        <ele>1065.3</ele>
        <time>2023-09-25T09:57:03Z</time>
      </trkpt>
      <trkpt lat="43.73523" lon="6.58284">
        <ele>1064.9</ele>
        <time>2023-09-25T09:57:11Z</time>
      </trkpt>
      <trkpt lat="43.73523" lon="6.58297">
        <ele>1064.3</ele>
        <time>2023-09-25T09:57:20Z</time>
      </trkpt>
      <trkpt lat="43.73524" lon="6.58309">
        <ele>1063.6</ele>
        <time>2023-09-25T09:57:29Z</time>
      </trkpt>
      <trkpt lat="43.73525" lon="6.58322">
        <ele>1062.7</ele>
        <time>2023-09-25T09:57:38Z</time>
      </trkpt>
      <trkpt lat="43.73525" lon="6.58336">
        <ele>1061.8</ele>
        <time>2023-09-25T09:57:47Z</time>
      </trkpt>
      <trkpt lat="43.73527" lon="6.5835">
        <ele>1061</ele>
        <time>2023-09-25T09:57:57Z</time>
      </trkpt>
      <trkpt lat="43.73528" lon="6.58362">
        <ele>1060.6</ele>
        <time>2023-09-25T09:58:07Z</time>
      </trkpt>
      <trkpt lat="43.73528" lon="6.58375">
        <ele>1060.3</ele>
        <time>2023-09-25T09:58:16Z</time>
      </trkpt>
      <trkpt lat="43.73529" lon="6.58388">
        <ele>1060.3</ele>
        <time>2023-09-25T09:58:25Z</time>
      </trkpt>
      <trkpt lat="43.7353" lon="6.58401">
        <ele>1060.3</ele>
        <time>2023-09-25T09:58:34Z</time>
      </trkpt>
      <trkpt lat="43.73529" lon="6.58413">
        <ele>1058.5</ele>
        <time>2023-09-25T09:59:35Z</time>
      </trkpt>
      <trkpt lat="43.73531" lon="6.58426">
        <ele>1062</ele>
        <time>2023-09-25T10:01:52Z</time>
      </trkpt>
      <trkpt lat="43.73532" lon="6.58439">
        <ele>1062.7</ele>
        <time>2023-09-25T10:02:37Z</time>
      </trkpt>
      <trkpt lat="43.73535" lon="6.58453">
        <ele>1062.7</ele>
        <time>2023-09-25T10:02:48Z</time>
      </trkpt>
      <trkpt lat="43.73538" lon="6.58465">
        <ele>1062.2</ele>
        <time>2023-09-25T10:02:59Z</time>
      </trkpt>
      <trkpt lat="43.73541" lon="6.58478">
        <ele>1061.6</ele>
        <time>2023-09-25T10:03:08Z</time>
      </trkpt>
      <trkpt lat="43.73543" lon="6.58491">
        <ele>1060.6</ele>
        <time>2023-09-25T10:03:17Z</time>
      </trkpt>
      <trkpt lat="43.73546" lon="6.58503">
        <ele>1059.7</ele>
        <time>2023-09-25T10:03:26Z</time>
      </trkpt>
      <trkpt lat="43.7355" lon="6.58516">
        <ele>1059</ele>
        <time>2023-09-25T10:03:36Z</time>
      </trkpt>
      <trkpt lat="43.73553" lon="6.58528">
        <ele>1058.5</ele>
        <time>2023-09-25T10:03:44Z</time>
      </trkpt>
      <trkpt lat="43.73556" lon="6.58541">
        <ele>1057.8</ele>
        <time>2023-09-25T10:03:53Z</time>
      </trkpt>
      <trkpt lat="43.73558" lon="6.58553">
        <ele>1057.7</ele>
        <time>2023-09-25T10:04:01Z</time>
      </trkpt>
      <trkpt lat="43.73561" lon="6.58566">
        <ele>1057.6</ele>
        <time>2023-09-25T10:04:10Z</time>
      </trkpt>
      <trkpt lat="43.73564" lon="6.58578">
        <ele>1057.9</ele>
        <time>2023-09-25T10:04:19Z</time>
      </trkpt>
      <trkpt lat="43.73566" lon="6.5859">
        <ele>1058.5</ele>
        <time>2023-09-25T10:04:28Z</time>
      </trkpt>
      <trkpt lat="43.73569" lon="6.58603">
        <ele>1058.7</ele>
        <time>2023-09-25T10:04:37Z</time>
      </trkpt>
      <trkpt lat="43.73573" lon="6.58616">
        <ele>1058.6</ele>
        <time>2023-09-25T10:04:46Z</time>
      </trkpt>
      <trkpt lat="43.73575" lon="6.58629">
        <ele>1058.4</ele>
        <time>2023-09-25T10:04:55Z</time>
      </trkpt>
      <trkpt lat="43.73577" lon="6.58641">
        <ele>1058.3</ele>
        <time>2023-09-25T10:05:03Z</time>
      </trkpt>
      <trkpt lat="43.73577" lon="6.58655">
        <ele>1058.3</ele>
        <time>2023-09-25T10:05:12Z</time>
      </trkpt>
      <trkpt lat="43.73577" lon="6.58668">
        <ele>1057.9</ele>
        <time>2023-09-25T10:05:21Z</time>
      </trkpt>
      <trkpt lat="43.73577" lon="6.58681">
        <ele>1057.6</ele>
        <time>2023-09-25T10:05:29Z</time>
      </trkpt>
      <trkpt lat="43.73577" lon="6.58694">
        <ele>1057.3</ele>
        <time>2023-09-25T10:05:38Z</time>
      </trkpt>
      <trkpt lat="43.73579" lon="6.58706">
        <ele>1057.2</ele>
        <time>2023-09-25T10:05:47Z</time>
      </trkpt>
      <trkpt lat="43.73582" lon="6.58719">
        <ele>1057.5</ele>
        <time>2023-09-25T10:05:56Z</time>
      </trkpt>
      <trkpt lat="43.73585" lon="6.58732">
        <ele>1057.9</ele>
        <time>2023-09-25T10:06:06Z</time>
      </trkpt>
      <trkpt lat="43.73589" lon="6.58743">
        <ele>1057.9</ele>
        <time>2023-09-25T10:06:15Z</time>
      </trkpt>
      <trkpt lat="43.73594" lon="6.58754">
        <ele>1058</ele>
        <time>2023-09-25T10:06:24Z</time>
      </trkpt>
      <trkpt lat="43.73598" lon="6.58767">
        <ele>1058.3</ele>
        <time>2023-09-25T10:06:35Z</time>
      </trkpt>
      <trkpt lat="43.73602" lon="6.58779">
        <ele>1058.7</ele>
        <time>2023-09-25T10:06:44Z</time>
      </trkpt>
      <trkpt lat="43.73606" lon="6.5879">
        <ele>1059.2</ele>
        <time>2023-09-25T10:06:54Z</time>
      </trkpt>
      <trkpt lat="43.73609" lon="6.58803">
        <ele>1059.5</ele>
        <time>2023-09-25T10:07:04Z</time>
      </trkpt>
      <trkpt lat="43.73612" lon="6.58816">
        <ele>1059.4</ele>
        <time>2023-09-25T10:07:14Z</time>
      </trkpt>
      <trkpt lat="43.73615" lon="6.58828">
        <ele>1058.9</ele>
        <time>2023-09-25T10:07:24Z</time>
      </trkpt>
      <trkpt lat="43.73619" lon="6.5884">
        <ele>1058.3</ele>
        <time>2023-09-25T10:07:34Z</time>
      </trkpt>
      <trkpt lat="43.73627" lon="6.58849">
        <ele>1057.6</ele>
        <time>2023-09-25T10:07:44Z</time>
      </trkpt>
      <trkpt lat="43.73634" lon="6.58858">
        <ele>1056.5</ele>
        <time>2023-09-25T10:07:54Z</time>
      </trkpt>
      <trkpt lat="43.73641" lon="6.58868">
        <ele>1055.8</ele>
        <time>2023-09-25T10:08:04Z</time>
      </trkpt>
      <trkpt lat="43.73648" lon="6.58876">
        <ele>1055.5</ele>
        <time>2023-09-25T10:08:13Z</time>
      </trkpt>
      <trkpt lat="43.73655" lon="6.58886">
        <ele>1055.2</ele>
        <time>2023-09-25T10:08:23Z</time>
      </trkpt>
      <trkpt lat="43.73663" lon="6.58894">
        <ele>1055.2</ele>
        <time>2023-09-25T10:08:32Z</time>
      </trkpt>
      <trkpt lat="43.7367" lon="6.58903">
        <ele>1055.1</ele>
        <time>2023-09-25T10:08:41Z</time>
      </trkpt>
      <trkpt lat="43.73677" lon="6.58912">
        <ele>1055</ele>
        <time>2023-09-25T10:08:50Z</time>
      </trkpt>
      <trkpt lat="43.73683" lon="6.5892">
        <ele>1054.8</ele>
        <time>2023-09-25T10:08:59Z</time>
      </trkpt>
      <trkpt lat="43.73688" lon="6.58932">
        <ele>1054.4</ele>
        <time>2023-09-25T10:09:08Z</time>
      </trkpt>
      <trkpt lat="43.73692" lon="6.58944">
        <ele>1054.1</ele>
        <time>2023-09-25T10:09:18Z</time>
      </trkpt>
      <trkpt lat="43.73695" lon="6.58956">
        <ele>1054.2</ele>
        <time>2023-09-25T10:09:28Z</time>
      </trkpt>
      <trkpt lat="43.73697" lon="6.58969">
        <ele>1054.5</ele>
        <time>2023-09-25T10:09:38Z</time>
      </trkpt>
      <trkpt lat="43.73698" lon="6.58982">
        <ele>1054.4</ele>
        <time>2023-09-25T10:09:49Z</time>
      </trkpt>
      <trkpt lat="43.73701" lon="6.58995">
        <ele>1054.1</ele>
        <time>2023-09-25T10:09:59Z</time>
      </trkpt>
      <trkpt lat="43.73704" lon="6.59007">
        <ele>1054</ele>
        <time>2023-09-25T10:10:10Z</time>
      </trkpt>
      <trkpt lat="43.73705" lon="6.5902">
        <ele>1054.4</ele>
        <time>2023-09-25T10:10:19Z</time>
      </trkpt>
      <trkpt lat="43.73705" lon="6.59034">
        <ele>1054.7</ele>
        <time>2023-09-25T10:10:29Z</time>
      </trkpt>
      <trkpt lat="43.73705" lon="6.59048">
        <ele>1054.8</ele>
        <time>2023-09-25T10:10:39Z</time>
      </trkpt>
      <trkpt lat="43.73705" lon="6.59061">
        <ele>1054.7</ele>
        <time>2023-09-25T10:10:49Z</time>
      </trkpt>
      <trkpt lat="43.73706" lon="6.59074">
        <ele>1054.2</ele>
        <time>2023-09-25T10:11:00Z</time>
      </trkpt>
      <trkpt lat="43.73707" lon="6.59088">
        <ele>1053.5</ele>
        <time>2023-09-25T10:11:10Z</time>
      </trkpt>
      <trkpt lat="43.73708" lon="6.59101">
        <ele>1053.1</ele>
        <time>2023-09-25T10:11:20Z</time>
      </trkpt>
      <trkpt lat="43.73709" lon="6.59115">
        <ele>1052.8</ele>
        <time>2023-09-25T10:11:30Z</time>
      </trkpt>
      <trkpt lat="43.73709" lon="6.59128">
        <ele>1052.5</ele>
        <time>2023-09-25T10:11:40Z</time>
      </trkpt>
      <trkpt lat="43.7371" lon="6.59141">
        <ele>1052</ele>
        <time>2023-09-25T10:11:50Z</time>
      </trkpt>
      <trkpt lat="43.7371" lon="6.59155">
        <ele>1051.8</ele>
        <time>2023-09-25T10:12:00Z</time>
      </trkpt>
      <trkpt lat="43.7371" lon="6.59168">
        <ele>1051.8</ele>
        <time>2023-09-25T10:12:10Z</time>
      </trkpt>
      <trkpt lat="43.73709" lon="6.59181">
        <ele>1052.3</ele>
        <time>2023-09-25T10:12:22Z</time>
      </trkpt>
      <trkpt lat="43.73711" lon="6.59193">
        <ele>1053.3</ele>
        <time>2023-09-25T10:13:11Z</time>
      </trkpt>
      <trkpt lat="43.73711" lon="6.59207">
        <ele>1053.6</ele>
        <time>2023-09-25T10:13:20Z</time>
      </trkpt>
      <trkpt lat="43.7371" lon="6.5922">
        <ele>1054.4</ele>
        <time>2023-09-25T10:13:30Z</time>
      </trkpt>
      <trkpt lat="43.73708" lon="6.59233">
        <ele>1055.2</ele>
        <time>2023-09-25T10:13:39Z</time>
      </trkpt>
      <trkpt lat="43.73707" lon="6.59247">
        <ele>1055.5</ele>
        <time>2023-09-25T10:13:48Z</time>
      </trkpt>
      <trkpt lat="43.73707" lon="6.59261">
        <ele>1055.8</ele>
        <time>2023-09-25T10:13:57Z</time>
      </trkpt>
      <trkpt lat="43.73708" lon="6.59275">
        <ele>1055.7</ele>
        <time>2023-09-25T10:14:07Z</time>
      </trkpt>
      <trkpt lat="43.73708" lon="6.59288">
        <ele>1055.5</ele>
        <time>2023-09-25T10:14:15Z</time>
      </trkpt>
      <trkpt lat="43.73709" lon="6.59302">
        <ele>1055.3</ele>
        <time>2023-09-25T10:14:23Z</time>
      </trkpt>
      <trkpt lat="43.7371" lon="6.59314">
        <ele>1055.8</ele>
        <time>2023-09-25T10:14:32Z</time>
      </trkpt>
      <trkpt lat="43.73711" lon="6.59328">
        <ele>1056.5</ele>
        <time>2023-09-25T10:14:42Z</time>
      </trkpt>
      <trkpt lat="43.73711" lon="6.59341">
        <ele>1057.2</ele>
        <time>2023-09-25T10:14:52Z</time>
      </trkpt>
      <trkpt lat="43.7371" lon="6.59355">
        <ele>1057.6</ele>
        <time>2023-09-25T10:15:01Z</time>
      </trkpt>
      <trkpt lat="43.73711" lon="6.59367">
        <ele>1057.9</ele>
        <time>2023-09-25T10:15:11Z</time>
      </trkpt>
      <trkpt lat="43.73708" lon="6.59379">
        <ele>1058.2</ele>
        <time>2023-09-25T10:15:28Z</time>
      </trkpt>
      <trkpt lat="43.73706" lon="6.59393">
        <ele>1058.8</ele>
        <time>2023-09-25T10:15:46Z</time>
      </trkpt>
      <trkpt lat="43.73704" lon="6.59406">
        <ele>1058.9</ele>
        <time>2023-09-25T10:15:56Z</time>
      </trkpt>
      <trkpt lat="43.73704" lon="6.59419">
        <ele>1059</ele>
        <time>2023-09-25T10:16:09Z</time>
      </trkpt>
      <trkpt lat="43.73712" lon="6.59426">
        <ele>1058.8</ele>
        <time>2023-09-25T10:20:54Z</time>
      </trkpt>
      <trkpt lat="43.73702" lon="6.59426">
        <ele>1059.2</ele>
        <time>2023-09-25T10:22:49Z</time>
      </trkpt>
      <trkpt lat="43.73711" lon="6.59427">
        <ele>1059.6</ele>
        <time>2023-09-25T10:27:00Z</time>
      </trkpt>
      <trkpt lat="43.73702" lon="6.59429">
        <ele>1059.2</ele>
        <time>2023-09-25T10:30:31Z</time>
      </trkpt>
      <trkpt lat="43.73706" lon="6.59417">
        <ele>1058.6</ele>
        <time>2023-09-25T10:33:30Z</time>
      </trkpt>
      <trkpt lat="43.73714" lon="6.59425">
        <ele>1058.7</ele>
        <time>2023-09-25T10:35:25Z</time>
      </trkpt>
      <trkpt lat="43.73705" lon="6.59427">
        <ele>1058.6</ele>
        <time>2023-09-25T10:37:12Z</time>
      </trkpt>
      <trkpt lat="43.73696" lon="6.5943">
        <ele>1058.6</ele>
        <time>2023-09-25T10:37:54Z</time>
      </trkpt>
      <trkpt lat="43.73702" lon="6.59422">
        <ele>1058.4</ele>
        <time>2023-09-25T10:39:15Z</time>
      </trkpt>
      <trkpt lat="43.73711" lon="6.59421">
        <ele>1058.6</ele>
        <time>2023-09-25T10:41:26Z</time>
      </trkpt>
      <trkpt lat="43.73703" lon="6.59426">
        <ele>1059.3</ele>
        <time>2023-09-25T10:47:45Z</time>
      </trkpt>
      <trkpt lat="43.73695" lon="6.59431">
        <ele>1059.2</ele>
        <time>2023-09-25T10:48:13Z</time>
      </trkpt>
      <trkpt lat="43.73703" lon="6.59425">
        <ele>1059.3</ele>
        <time>2023-09-25T10:50:44Z</time>
      </trkpt>
      <trkpt lat="43.73711" lon="6.59432">
        <ele>1059.5</ele>
        <time>2023-09-25T10:51:48Z</time>
      </trkpt>
      <trkpt lat="43.73703" lon="6.59439">
        <ele>1061.4</ele>
        <time>2023-09-25T11:15:06Z</time>
      </trkpt>
      <trkpt lat="43.73701" lon="6.59451">
        <ele>1061.2</ele>
        <time>2023-09-25T11:15:18Z</time>
      </trkpt>
      <trkpt lat="43.73698" lon="6.59463">
        <ele>1060.3</ele>
        <time>2023-09-25T11:15:30Z</time>
      </trkpt>
      <trkpt lat="43.73694" lon="6.59475">
        <ele>1059.6</ele>
        <time>2023-09-25T11:15:41Z</time>
      </trkpt>
      <trkpt lat="43.73691" lon="6.59489">
        <ele>1059.2</ele>
        <time>2023-09-25T11:15:51Z</time>
      </trkpt>
      <trkpt lat="43.73689" lon="6.59501">
        <ele>1058.8</ele>
        <time>2023-09-25T11:16:00Z</time>
      </trkpt>
      <trkpt lat="43.73685" lon="6.59513">
        <ele>1058.5</ele>
        <time>2023-09-25T11:16:10Z</time>
      </trkpt>
      <trkpt lat="43.73681" lon="6.59525">
        <ele>1058.4</ele>
        <time>2023-09-25T11:16:21Z</time>
      </trkpt>
      <trkpt lat="43.73677" lon="6.59537">
        <ele>1058.4</ele>
        <time>2023-09-25T11:16:33Z</time>
      </trkpt>
      <trkpt lat="43.73675" lon="6.59549">
        <ele>1058.5</ele>
        <time>2023-09-25T11:16:42Z</time>
      </trkpt>
      <trkpt lat="43.73674" lon="6.59562">
        <ele>1058.7</ele>
        <time>2023-09-25T11:16:52Z</time>
      </trkpt>
      <trkpt lat="43.73675" lon="6.59575">
        <ele>1058.6</ele>
        <time>2023-09-25T11:17:02Z</time>
      </trkpt>
      <trkpt lat="43.73676" lon="6.59589">
        <ele>1058.4</ele>
        <time>2023-09-25T11:17:11Z</time>
      </trkpt>
      <trkpt lat="43.73674" lon="6.59602">
        <ele>1058</ele>
        <time>2023-09-25T11:17:20Z</time>
      </trkpt>
      <trkpt lat="43.73671" lon="6.59614">
        <ele>1057.5</ele>
        <time>2023-09-25T11:17:29Z</time>
      </trkpt>
      <trkpt lat="43.7367" lon="6.59627">
        <ele>1056.5</ele>
        <time>2023-09-25T11:17:40Z</time>
      </trkpt>
      <trkpt lat="43.73671" lon="6.59641">
        <ele>1054.8</ele>
        <time>2023-09-25T11:17:51Z</time>
      </trkpt>
      <trkpt lat="43.73669" lon="6.59654">
        <ele>1052.4</ele>
        <time>2023-09-25T11:18:42Z</time>
      </trkpt>
      <trkpt lat="43.73666" lon="6.59667">
        <ele>1050.7</ele>
        <time>2023-09-25T11:19:04Z</time>
      </trkpt>
      <trkpt lat="43.73665" lon="6.5968">
        <ele>1049.9</ele>
        <time>2023-09-25T11:19:17Z</time>
      </trkpt>
      <trkpt lat="43.73664" lon="6.59693">
        <ele>1049</ele>
        <time>2023-09-25T11:19:28Z</time>
      </trkpt>
      <trkpt lat="43.73663" lon="6.59705">
        <ele>1048.5</ele>
        <time>2023-09-25T11:19:38Z</time>
      </trkpt>
      <trkpt lat="43.73663" lon="6.59718">
        <ele>1048.1</ele>
        <time>2023-09-25T11:19:48Z</time>
      </trkpt>
      <trkpt lat="43.7366" lon="6.5973">
        <ele>1047.6</ele>
        <time>2023-09-25T11:20:00Z</time>
      </trkpt>
      <trkpt lat="43.73657" lon="6.59742">
        <ele>1047.1</ele>
        <time>2023-09-25T11:20:09Z</time>
      </trkpt>
      <trkpt lat="43.73656" lon="6.59755">
        <ele>1046.7</ele>
        <time>2023-09-25T11:20:20Z</time>
      </trkpt>
      <trkpt lat="43.73654" lon="6.59768">
        <ele>1046.5</ele>
        <time>2023-09-25T11:20:30Z</time>
      </trkpt>
      <trkpt lat="43.73652" lon="6.59781">
        <ele>1046.4</ele>
        <time>2023-09-25T11:20:40Z</time>
      </trkpt>
      <trkpt lat="43.73655" lon="6.59794">
        <ele>1046.7</ele>
        <time>2023-09-25T11:20:51Z</time>
      </trkpt>
      <trkpt lat="43.73659" lon="6.59805">
        <ele>1047.3</ele>
        <time>2023-09-25T11:21:02Z</time>
      </trkpt>
      <trkpt lat="43.73665" lon="6.59815">
        <ele>1048.4</ele>
        <time>2023-09-25T11:21:14Z</time>
      </trkpt>
      <trkpt lat="43.73671" lon="6.59825">
        <ele>1048.4</ele>
        <time>2023-09-25T11:21:27Z</time>
      </trkpt>
      <trkpt lat="43.73678" lon="6.59834">
        <ele>1047</ele>
        <time>2023-09-25T11:21:39Z</time>
      </trkpt>
      <trkpt lat="43.73682" lon="6.59846">
        <ele>1046.2</ele>
        <time>2023-09-25T11:21:50Z</time>
      </trkpt>
      <trkpt lat="43.73687" lon="6.59857">
        <ele>1045.5</ele>
        <time>2023-09-25T11:22:02Z</time>
      </trkpt>
      <trkpt lat="43.73691" lon="6.59869">
        <ele>1045.2</ele>
        <time>2023-09-25T11:22:12Z</time>
      </trkpt>
      <trkpt lat="43.73696" lon="6.59879">
        <ele>1045.3</ele>
        <time>2023-09-25T11:22:21Z</time>
      </trkpt>
      <trkpt lat="43.737" lon="6.59892">
        <ele>1045</ele>
        <time>2023-09-25T11:22:31Z</time>
      </trkpt>
      <trkpt lat="43.73703" lon="6.59905">
        <ele>1042.8</ele>
        <time>2023-09-25T11:22:40Z</time>
      </trkpt>
      <trkpt lat="43.73705" lon="6.59917">
        <ele>1044.8</ele>
        <time>2023-09-25T11:22:49Z</time>
      </trkpt>
      <trkpt lat="43.73708" lon="6.5993">
        <ele>1046.3</ele>
        <time>2023-09-25T11:22:59Z</time>
      </trkpt>
      <trkpt lat="43.73708" lon="6.59943">
        <ele>1047.8</ele>
        <time>2023-09-25T11:23:09Z</time>
      </trkpt>
      <trkpt lat="43.73708" lon="6.59957">
        <ele>1049.1</ele>
        <time>2023-09-25T11:23:19Z</time>
      </trkpt>
      <trkpt lat="43.73706" lon="6.59969">
        <ele>1050</ele>
        <time>2023-09-25T11:23:28Z</time>
      </trkpt>
      <trkpt lat="43.73704" lon="6.59981">
        <ele>1050.8</ele>
        <time>2023-09-25T11:23:38Z</time>
      </trkpt>
      <trkpt lat="43.73704" lon="6.59995">
        <ele>1051</ele>
        <time>2023-09-25T11:23:48Z</time>
      </trkpt>
      <trkpt lat="43.73702" lon="6.60008">
        <ele>1051.1</ele>
        <time>2023-09-25T11:23:58Z</time>
      </trkpt>
      <trkpt lat="43.73701" lon="6.60021">
        <ele>1051.2</ele>
        <time>2023-09-25T11:24:08Z</time>
      </trkpt>
      <trkpt lat="43.73699" lon="6.60034">
        <ele>1051.3</ele>
        <time>2023-09-25T11:24:18Z</time>
      </trkpt>
      <trkpt lat="43.73698" lon="6.60046">
        <ele>1051.6</ele>
        <time>2023-09-25T11:24:28Z</time>
      </trkpt>
      <trkpt lat="43.73696" lon="6.60059">
        <ele>1051.6</ele>
        <time>2023-09-25T11:24:39Z</time>
      </trkpt>
      <trkpt lat="43.73695" lon="6.60072">
        <ele>1051.4</ele>
        <time>2023-09-25T11:24:49Z</time>
      </trkpt>
      <trkpt lat="43.73692" lon="6.60084">
        <ele>1051</ele>
        <time>2023-09-25T11:24:58Z</time>
      </trkpt>
      <trkpt lat="43.7369" lon="6.60097">
        <ele>1050.9</ele>
        <time>2023-09-25T11:25:08Z</time>
      </trkpt>
      <trkpt lat="43.73686" lon="6.6011">
        <ele>1050.5</ele>
        <time>2023-09-25T11:25:18Z</time>
      </trkpt>
      <trkpt lat="43.73684" lon="6.60122">
        <ele>1050.4</ele>
        <time>2023-09-25T11:25:27Z</time>
      </trkpt>
      <trkpt lat="43.73682" lon="6.60135">
        <ele>1050.2</ele>
        <time>2023-09-25T11:25:37Z</time>
      </trkpt>
      <trkpt lat="43.73679" lon="6.60148">
        <ele>1050</ele>
        <time>2023-09-25T11:25:46Z</time>
      </trkpt>
      <trkpt lat="43.73676" lon="6.6016">
        <ele>1050</ele>
        <time>2023-09-25T11:25:56Z</time>
      </trkpt>
      <trkpt lat="43.73674" lon="6.60174">
        <ele>1049.1</ele>
        <time>2023-09-25T11:26:21Z</time>
      </trkpt>
      <trkpt lat="43.73674" lon="6.60186">
        <ele>1048.8</ele>
        <time>2023-09-25T11:26:30Z</time>
      </trkpt>
      <trkpt lat="43.73674" lon="6.602">
        <ele>1048.7</ele>
        <time>2023-09-25T11:26:39Z</time>
      </trkpt>
      <trkpt lat="43.73673" lon="6.60212">
        <ele>1048.6</ele>
        <time>2023-09-25T11:26:47Z</time>
      </trkpt>
      <trkpt lat="43.73672" lon="6.60226">
        <ele>1048.4</ele>
        <time>2023-09-25T11:26:55Z</time>
      </trkpt>
      <trkpt lat="43.7367" lon="6.60239">
        <ele>1048.2</ele>
        <time>2023-09-25T11:27:03Z</time>
      </trkpt>
      <trkpt lat="43.73669" lon="6.60252">
        <ele>1047.9</ele>
        <time>2023-09-25T11:27:12Z</time>
      </trkpt>
      <trkpt lat="43.73667" lon="6.60264">
        <ele>1047.9</ele>
        <time>2023-09-25T11:27:19Z</time>
      </trkpt>
      <trkpt lat="43.73664" lon="6.60278">
        <ele>1047.9</ele>
        <time>2023-09-25T11:27:28Z</time>
      </trkpt>
      <trkpt lat="43.73663" lon="6.6029">
        <ele>1047.8</ele>
        <time>2023-09-25T11:27:37Z</time>
      </trkpt>
      <trkpt lat="43.73662" lon="6.60303">
        <ele>1047.7</ele>
        <time>2023-09-25T11:27:47Z</time>
      </trkpt>
      <trkpt lat="43.73661" lon="6.60317">
        <ele>1047.1</ele>
        <time>2023-09-25T11:27:58Z</time>
      </trkpt>
      <trkpt lat="43.73659" lon="6.6033">
        <ele>1046.8</ele>
        <time>2023-09-25T11:28:08Z</time>
      </trkpt>
      <trkpt lat="43.73657" lon="6.60342">
        <ele>1046.5</ele>
        <time>2023-09-25T11:28:18Z</time>
      </trkpt>
      <trkpt lat="43.73655" lon="6.60355">
        <ele>1046.1</ele>
        <time>2023-09-25T11:28:28Z</time>
      </trkpt>
      <trkpt lat="43.73655" lon="6.60369">
        <ele>1045.4</ele>
        <time>2023-09-25T11:28:39Z</time>
      </trkpt>
      <trkpt lat="43.73654" lon="6.60381">
        <ele>1045</ele>
        <time>2023-09-25T11:28:49Z</time>
      </trkpt>
      <trkpt lat="43.73655" lon="6.60394">
        <ele>1044.8</ele>
        <time>2023-09-25T11:29:00Z</time>
      </trkpt>
      <trkpt lat="43.73655" lon="6.60407">
        <ele>1044.4</ele>
        <time>2023-09-25T11:29:10Z</time>
      </trkpt>
      <trkpt lat="43.73655" lon="6.6042">
        <ele>1044</ele>
        <time>2023-09-25T11:29:21Z</time>
      </trkpt>
      <trkpt lat="43.73656" lon="6.60433">
        <ele>1043.8</ele>
        <time>2023-09-25T11:29:31Z</time>
      </trkpt>
      <trkpt lat="43.73657" lon="6.60446">
        <ele>1043.4</ele>
        <time>2023-09-25T11:29:41Z</time>
      </trkpt>
      <trkpt lat="43.73657" lon="6.60459">
        <ele>1043.2</ele>
        <time>2023-09-25T11:29:50Z</time>
      </trkpt>
      <trkpt lat="43.73659" lon="6.60472">
        <ele>1043.2</ele>
        <time>2023-09-25T11:29:59Z</time>
      </trkpt>
      <trkpt lat="43.73657" lon="6.60486">
        <ele>1043.2</ele>
        <time>2023-09-25T11:30:08Z</time>
      </trkpt>
      <trkpt lat="43.73656" lon="6.60499">
        <ele>1043.5</ele>
        <time>2023-09-25T11:30:18Z</time>
      </trkpt>
      <trkpt lat="43.73656" lon="6.60513">
        <ele>1044.3</ele>
        <time>2023-09-25T11:30:28Z</time>
      </trkpt>
      <trkpt lat="43.73657" lon="6.60526">
        <ele>1044.8</ele>
        <time>2023-09-25T11:30:37Z</time>
      </trkpt>
      <trkpt lat="43.73657" lon="6.60539">
        <ele>1045</ele>
        <time>2023-09-25T11:30:48Z</time>
      </trkpt>
      <trkpt lat="43.73658" lon="6.60552">
        <ele>1045</ele>
        <time>2023-09-25T11:30:59Z</time>
      </trkpt>
      <trkpt lat="43.73657" lon="6.60566">
        <ele>1044.8</ele>
        <time>2023-09-25T11:31:09Z</time>
      </trkpt>
      <trkpt lat="43.73657" lon="6.60579">
        <ele>1044.1</ele>
        <time>2023-09-25T11:31:20Z</time>
      </trkpt>
      <trkpt lat="43.73659" lon="6.60592">
        <ele>1043.3</ele>
        <time>2023-09-25T11:31:31Z</time>
      </trkpt>
      <trkpt lat="43.73661" lon="6.60605">
        <ele>1042.4</ele>
        <time>2023-09-25T11:31:42Z</time>
      </trkpt>
      <trkpt lat="43.73663" lon="6.60617">
        <ele>1041.6</ele>
        <time>2023-09-25T11:31:52Z</time>
      </trkpt>
      <trkpt lat="43.73665" lon="6.60631">
        <ele>1041.1</ele>
        <time>2023-09-25T11:32:03Z</time>
      </trkpt>
      <trkpt lat="43.73667" lon="6.60643">
        <ele>1040.8</ele>
        <time>2023-09-25T11:32:13Z</time>
      </trkpt>
      <trkpt lat="43.73667" lon="6.60656">
        <ele>1041.1</ele>
        <time>2023-09-25T11:32:23Z</time>
      </trkpt>
      <trkpt lat="43.73666" lon="6.60669">
        <ele>1041.2</ele>
        <time>2023-09-25T11:32:34Z</time>
      </trkpt>
      <trkpt lat="43.73667" lon="6.60681">
        <ele>1042.1</ele>
        <time>2023-09-25T11:32:44Z</time>
      </trkpt>
      <trkpt lat="43.73667" lon="6.60695">
        <ele>1043.1</ele>
        <time>2023-09-25T11:32:54Z</time>
      </trkpt>
      <trkpt lat="43.73666" lon="6.60708">
        <ele>1044.3</ele>
        <time>2023-09-25T11:33:07Z</time>
      </trkpt>
      <trkpt lat="43.73664" lon="6.6072">
        <ele>1045.5</ele>
        <time>2023-09-25T11:33:18Z</time>
      </trkpt>
      <trkpt lat="43.73664" lon="6.60733">
        <ele>1047.1</ele>
        <time>2023-09-25T11:33:31Z</time>
      </trkpt>
      <trkpt lat="43.73663" lon="6.60746">
        <ele>1048.4</ele>
        <time>2023-09-25T11:33:43Z</time>
      </trkpt>
      <trkpt lat="43.73662" lon="6.60759">
        <ele>1049.2</ele>
        <time>2023-09-25T11:33:53Z</time>
      </trkpt>
      <trkpt lat="43.73661" lon="6.60771">
        <ele>1050.4</ele>
        <time>2023-09-25T11:34:03Z</time>
      </trkpt>
      <trkpt lat="43.73661" lon="6.60784">
        <ele>1051.4</ele>
        <time>2023-09-25T11:34:19Z</time>
      </trkpt>
      <trkpt lat="43.73662" lon="6.60797">
        <ele>1051.7</ele>
        <time>2023-09-25T11:34:43Z</time>
      </trkpt>
      <trkpt lat="43.73662" lon="6.6081">
        <ele>1051.7</ele>
        <time>2023-09-25T11:34:54Z</time>
      </trkpt>
      <trkpt lat="43.73665" lon="6.60822">
        <ele>1051.5</ele>
        <time>2023-09-25T11:35:05Z</time>
      </trkpt>
      <trkpt lat="43.73667" lon="6.60834">
        <ele>1051</ele>
        <time>2023-09-25T11:40:49Z</time>
      </trkpt>
      <trkpt lat="43.7367" lon="6.60846">
        <ele>1050.3</ele>
        <time>2023-09-25T11:41:00Z</time>
      </trkpt>
      <trkpt lat="43.73672" lon="6.60859">
        <ele>1049.6</ele>
        <time>2023-09-25T11:41:09Z</time>
      </trkpt>
      <trkpt lat="43.73674" lon="6.60873">
        <ele>1049.2</ele>
        <time>2023-09-25T11:41:19Z</time>
      </trkpt>
      <trkpt lat="43.73675" lon="6.60886">
        <ele>1048.4</ele>
        <time>2023-09-25T11:41:28Z</time>
      </trkpt>
      <trkpt lat="43.73677" lon="6.60899">
        <ele>1047.7</ele>
        <time>2023-09-25T11:41:37Z</time>
      </trkpt>
      <trkpt lat="43.73677" lon="6.60912">
        <ele>1047.1</ele>
        <time>2023-09-25T11:41:46Z</time>
      </trkpt>
      <trkpt lat="43.73679" lon="6.60926">
        <ele>1046.5</ele>
        <time>2023-09-25T11:41:55Z</time>
      </trkpt>
      <trkpt lat="43.73678" lon="6.60939">
        <ele>1045.9</ele>
        <time>2023-09-25T11:42:07Z</time>
      </trkpt>
      <trkpt lat="43.73677" lon="6.60952">
        <ele>1045.6</ele>
        <time>2023-09-25T11:42:15Z</time>
      </trkpt>
      <trkpt lat="43.73677" lon="6.60965">
        <ele>1045.4</ele>
        <time>2023-09-25T11:42:23Z</time>
      </trkpt>
      <trkpt lat="43.73676" lon="6.60978">
        <ele>1045.1</ele>
        <time>2023-09-25T11:42:32Z</time>
      </trkpt>
      <trkpt lat="43.73675" lon="6.60992">
        <ele>1045</ele>
        <time>2023-09-25T11:42:41Z</time>
      </trkpt>
      <trkpt lat="43.73677" lon="6.61005">
        <ele>1044.9</ele>
        <time>2023-09-25T11:42:51Z</time>
      </trkpt>
      <trkpt lat="43.73675" lon="6.61017">
        <ele>1044.7</ele>
        <time>2023-09-25T11:43:00Z</time>
      </trkpt>
      <trkpt lat="43.73672" lon="6.61029">
        <ele>1044.7</ele>
        <time>2023-09-25T11:43:09Z</time>
      </trkpt>
      <trkpt lat="43.73672" lon="6.61043">
        <ele>1044.7</ele>
        <time>2023-09-25T11:43:18Z</time>
      </trkpt>
      <trkpt lat="43.73671" lon="6.61056">
        <ele>1044.6</ele>
        <time>2023-09-25T11:43:27Z</time>
      </trkpt>
      <trkpt lat="43.7367" lon="6.61069">
        <ele>1044.5</ele>
        <time>2023-09-25T11:43:36Z</time>
      </trkpt>
      <trkpt lat="43.73666" lon="6.61082">
        <ele>1044.4</ele>
        <time>2023-09-25T11:43:45Z</time>
      </trkpt>
      <trkpt lat="43.73664" lon="6.61095">
        <ele>1044.4</ele>
        <time>2023-09-25T11:43:54Z</time>
      </trkpt>
      <trkpt lat="43.73662" lon="6.61107">
        <ele>1044.6</ele>
        <time>2023-09-25T11:44:03Z</time>
      </trkpt>
      <trkpt lat="43.73659" lon="6.61119">
        <ele>1045.2</ele>
        <time>2023-09-25T11:44:12Z</time>
      </trkpt>
      <trkpt lat="43.73656" lon="6.61131">
        <ele>1045.6</ele>
        <time>2023-09-25T11:44:21Z</time>
      </trkpt>
      <trkpt lat="43.73655" lon="6.61145">
        <ele>1045.9</ele>
        <time>2023-09-25T11:44:31Z</time>
      </trkpt>
      <trkpt lat="43.73654" lon="6.61157">
        <ele>1045.9</ele>
        <time>2023-09-25T11:44:40Z</time>
      </trkpt>
      <trkpt lat="43.73651" lon="6.61169">
        <ele>1045.9</ele>
        <time>2023-09-25T11:44:49Z</time>
      </trkpt>
      <trkpt lat="43.73649" lon="6.61182">
        <ele>1045.9</ele>
        <time>2023-09-25T11:44:58Z</time>
      </trkpt>
      <trkpt lat="43.73647" lon="6.61195">
        <ele>1045.9</ele>
        <time>2023-09-25T11:45:07Z</time>
      </trkpt>
      <trkpt lat="43.73645" lon="6.61208">
        <ele>1046.1</ele>
        <time>2023-09-25T11:45:16Z</time>
      </trkpt>
      <trkpt lat="43.73644" lon="6.61221">
        <ele>1046.5</ele>
        <time>2023-09-25T11:45:25Z</time>
      </trkpt>
      <trkpt lat="43.73642" lon="6.61234">
        <ele>1047.1</ele>
        <time>2023-09-25T11:45:35Z</time>
      </trkpt>
      <trkpt lat="43.73637" lon="6.61245">
        <ele>1048.3</ele>
        <time>2023-09-25T11:46:20Z</time>
      </trkpt>
      <trkpt lat="43.73632" lon="6.61256">
        <ele>1048.1</ele>
        <time>2023-09-25T11:46:34Z</time>
      </trkpt>
      <trkpt lat="43.73626" lon="6.61266">
        <ele>1046.6</ele>
        <time>2023-09-25T11:46:55Z</time>
      </trkpt>
      <trkpt lat="43.73619" lon="6.61274">
        <ele>1045.2</ele>
        <time>2023-09-25T11:47:36Z</time>
      </trkpt>
      <trkpt lat="43.73612" lon="6.61282">
        <ele>1043.4</ele>
        <time>2023-09-25T11:48:22Z</time>
      </trkpt>
      <trkpt lat="43.73607" lon="6.61293">
        <ele>1042</ele>
        <time>2023-09-25T11:48:32Z</time>
      </trkpt>
      <trkpt lat="43.73602" lon="6.61303">
        <ele>1040.8</ele>
        <time>2023-09-25T11:48:41Z</time>
      </trkpt>
      <trkpt lat="43.73592" lon="6.61306">
        <ele>1038.6</ele>
        <time>2023-09-25T11:48:52Z</time>
      </trkpt>
      <trkpt lat="43.73583" lon="6.61304">
        <ele>1036.9</ele>
        <time>2023-09-25T11:49:02Z</time>
      </trkpt>
      <trkpt lat="43.73573" lon="6.61305">
        <ele>1035.5</ele>
        <time>2023-09-25T11:49:11Z</time>
      </trkpt>
      <trkpt lat="43.73564" lon="6.61307">
        <ele>1034.3</ele>
        <time>2023-09-25T11:49:20Z</time>
      </trkpt>
      <trkpt lat="43.73555" lon="6.61307">
        <ele>1033.1</ele>
        <time>2023-09-25T11:49:29Z</time>
      </trkpt>
      <trkpt lat="43.73546" lon="6.61305">
        <ele>1031.2</ele>
        <time>2023-09-25T11:49:47Z</time>
      </trkpt>
      <trkpt lat="43.73537" lon="6.61308">
        <ele>1030.6</ele>
        <time>2023-09-25T11:50:00Z</time>
      </trkpt>
      <trkpt lat="43.73528" lon="6.61312">
        <ele>1029.2</ele>
        <time>2023-09-25T11:50:13Z</time>
      </trkpt>
      <trkpt lat="43.73518" lon="6.61313">
        <ele>1028.1</ele>
        <time>2023-09-25T11:50:22Z</time>
      </trkpt>
      <trkpt lat="43.73509" lon="6.6131">
        <ele>1027.4</ele>
        <time>2023-09-25T11:50:31Z</time>
      </trkpt>
      <trkpt lat="43.73501" lon="6.61303">
        <ele>1026.7</ele>
        <time>2023-09-25T11:50:39Z</time>
      </trkpt>
      <trkpt lat="43.73493" lon="6.61297">
        <ele>1025.9</ele>
        <time>2023-09-25T11:50:51Z</time>
      </trkpt>
      <trkpt lat="43.73484" lon="6.61294">
        <ele>1025</ele>
        <time>2023-09-25T11:51:02Z</time>
      </trkpt>
      <trkpt lat="43.73476" lon="6.61287">
        <ele>1024.4</ele>
        <time>2023-09-25T11:51:21Z</time>
      </trkpt>
      <trkpt lat="43.73469" lon="6.6128">
        <ele>1024.3</ele>
        <time>2023-09-25T11:51:37Z</time>
      </trkpt>
      <trkpt lat="43.7346" lon="6.61272">
        <ele>1024.6</ele>
        <time>2023-09-25T11:51:52Z</time>
      </trkpt>
      <trkpt lat="43.73452" lon="6.61266">
        <ele>1024.6</ele>
        <time>2023-09-25T11:52:02Z</time>
      </trkpt>
      <trkpt lat="43.73444" lon="6.61258">
        <ele>1024.5</ele>
        <time>2023-09-25T11:52:11Z</time>
      </trkpt>
      <trkpt lat="43.73437" lon="6.61249">
        <ele>1024.6</ele>
        <time>2023-09-25T11:52:20Z</time>
      </trkpt>
      <trkpt lat="43.73431" lon="6.61238">
        <ele>1025.3</ele>
        <time>2023-09-25T11:52:30Z</time>
      </trkpt>
      <trkpt lat="43.73424" lon="6.61229">
        <ele>1025.9</ele>
        <time>2023-09-25T11:52:40Z</time>
      </trkpt>
      <trkpt lat="43.73418" lon="6.61219">
        <ele>1026.8</ele>
        <time>2023-09-25T11:52:50Z</time>
      </trkpt>
      <trkpt lat="43.73412" lon="6.61208">
        <ele>1027.9</ele>
        <time>2023-09-25T11:53:11Z</time>
      </trkpt>
      <trkpt lat="43.73406" lon="6.61197">
        <ele>1028.3</ele>
        <time>2023-09-25T11:53:21Z</time>
      </trkpt>
      <trkpt lat="43.734" lon="6.61189">
        <ele>1028.4</ele>
        <time>2023-09-25T11:53:30Z</time>
      </trkpt>
      <trkpt lat="43.73392" lon="6.61181">
        <ele>1027.7</ele>
        <time>2023-09-25T11:53:40Z</time>
      </trkpt>
      <trkpt lat="43.73387" lon="6.61171">
        <ele>1026.6</ele>
        <time>2023-09-25T11:53:50Z</time>
      </trkpt>
      <trkpt lat="43.73385" lon="6.61158">
        <ele>1024.8</ele>
        <time>2023-09-25T11:54:01Z</time>
      </trkpt>
      <trkpt lat="43.73386" lon="6.61144">
        <ele>1023.3</ele>
        <time>2023-09-25T11:54:10Z</time>
      </trkpt>
      <trkpt lat="43.73383" lon="6.61132">
        <ele>1021.7</ele>
        <time>2023-09-25T11:54:20Z</time>
      </trkpt>
      <trkpt lat="43.73375" lon="6.61125">
        <ele>1018.5</ele>
        <time>2023-09-25T11:54:50Z</time>
      </trkpt>
      <trkpt lat="43.73377" lon="6.61112">
        <ele>1017.7</ele>
        <time>2023-09-25T11:56:27Z</time>
      </trkpt>
      <trkpt lat="43.73372" lon="6.61101">
        <ele>1016.6</ele>
        <time>2023-09-25T11:56:42Z</time>
      </trkpt>
      <trkpt lat="43.73367" lon="6.6109">
        <ele>1014.7</ele>
        <time>2023-09-25T11:56:55Z</time>
      </trkpt>
      <trkpt lat="43.73363" lon="6.61079">
        <ele>1012.4</ele>
        <time>2023-09-25T11:57:08Z</time>
      </trkpt>
      <trkpt lat="43.73361" lon="6.61066">
        <ele>1009.7</ele>
        <time>2023-09-25T11:57:23Z</time>
      </trkpt>
      <trkpt lat="43.73358" lon="6.61054">
        <ele>1007.8</ele>
        <time>2023-09-25T11:57:34Z</time>
      </trkpt>
      <trkpt lat="43.73357" lon="6.61041">
        <ele>1006</ele>
        <time>2023-09-25T11:57:47Z</time>
      </trkpt>
      <trkpt lat="43.73355" lon="6.61028">
        <ele>1004.6</ele>
        <time>2023-09-25T11:57:59Z</time>
      </trkpt>
      <trkpt lat="43.73353" lon="6.61015">
        <ele>1003.2</ele>
        <time>2023-09-25T11:58:13Z</time>
      </trkpt>
      <trkpt lat="43.73349" lon="6.61003">
        <ele>1002.1</ele>
        <time>2023-09-25T11:58:24Z</time>
      </trkpt>
      <trkpt lat="43.73345" lon="6.60991">
        <ele>1000.5</ele>
        <time>2023-09-25T11:58:43Z</time>
      </trkpt>
      <trkpt lat="43.73338" lon="6.60982">
        <ele>998.5</ele>
        <time>2023-09-25T11:59:08Z</time>
      </trkpt>
      <trkpt lat="43.73339" lon="6.60969">
        <ele>996.8</ele>
        <time>2023-09-25T11:59:34Z</time>
      </trkpt>
      <trkpt lat="43.73347" lon="6.60962">
        <ele>995.9</ele>
        <time>2023-09-25T11:59:52Z</time>
      </trkpt>
      <trkpt lat="43.7335" lon="6.6095">
        <ele>994.8</ele>
        <time>2023-09-25T12:01:13Z</time>
      </trkpt>
      <trkpt lat="43.73347" lon="6.60937">
        <ele>994.6</ele>
        <time>2023-09-25T12:01:26Z</time>
      </trkpt>
      <trkpt lat="43.73344" lon="6.60925">
        <ele>994.4</ele>
        <time>2023-09-25T12:01:35Z</time>
      </trkpt>
      <trkpt lat="43.73339" lon="6.60913">
        <ele>994.3</ele>
        <time>2023-09-25T12:01:45Z</time>
      </trkpt>
      <trkpt lat="43.73335" lon="6.60901">
        <ele>994</ele>
        <time>2023-09-25T12:01:54Z</time>
      </trkpt>
      <trkpt lat="43.7333" lon="6.6089">
        <ele>993.9</ele>
        <time>2023-09-25T12:02:03Z</time>
      </trkpt>
      <trkpt lat="43.73325" lon="6.60879">
        <ele>994.1</ele>
        <time>2023-09-25T12:02:13Z</time>
      </trkpt>
      <trkpt lat="43.73317" lon="6.60871">
        <ele>994.3</ele>
        <time>2023-09-25T12:02:23Z</time>
      </trkpt>
      <trkpt lat="43.7331" lon="6.60862">
        <ele>994.6</ele>
        <time>2023-09-25T12:02:33Z</time>
      </trkpt>
      <trkpt lat="43.73303" lon="6.60853">
        <ele>995.4</ele>
        <time>2023-09-25T12:02:44Z</time>
      </trkpt>
      <trkpt lat="43.73297" lon="6.60843">
        <ele>996.3</ele>
        <time>2023-09-25T12:02:55Z</time>
      </trkpt>
      <trkpt lat="43.73297" lon="6.60831">
        <ele>997.4</ele>
        <time>2023-09-25T12:03:19Z</time>
      </trkpt>
      <trkpt lat="43.73296" lon="6.60818">
        <ele>998</ele>
        <time>2023-09-25T12:03:33Z</time>
      </trkpt>
      <trkpt lat="43.73296" lon="6.60804">
        <ele>999.3</ele>
        <time>2023-09-25T12:03:50Z</time>
      </trkpt>
      <trkpt lat="43.73296" lon="6.60791">
        <ele>999.9</ele>
        <time>2023-09-25T12:04:01Z</time>
      </trkpt>
      <trkpt lat="43.73296" lon="6.60779">
        <ele>1000.5</ele>
        <time>2023-09-25T12:04:11Z</time>
      </trkpt>
      <trkpt lat="43.73294" lon="6.60766">
        <ele>1000.9</ele>
        <time>2023-09-25T12:04:20Z</time>
      </trkpt>
      <trkpt lat="43.73294" lon="6.60752">
        <ele>1001.2</ele>
        <time>2023-09-25T12:04:33Z</time>
      </trkpt>
      <trkpt lat="43.73295" lon="6.60739">
        <ele>1001.3</ele>
        <time>2023-09-25T12:04:43Z</time>
      </trkpt>
      <trkpt lat="43.73295" lon="6.60726">
        <ele>1001.3</ele>
        <time>2023-09-25T12:04:52Z</time>
      </trkpt>
      <trkpt lat="43.73293" lon="6.60714">
        <ele>1001.1</ele>
        <time>2023-09-25T12:05:01Z</time>
      </trkpt>
      <trkpt lat="43.73292" lon="6.607">
        <ele>1000.9</ele>
        <time>2023-09-25T12:05:09Z</time>
      </trkpt>
      <trkpt lat="43.73292" lon="6.60687">
        <ele>1000.1</ele>
        <time>2023-09-25T12:05:25Z</time>
      </trkpt>
      <trkpt lat="43.73289" lon="6.60674">
        <ele>999.7</ele>
        <time>2023-09-25T12:05:34Z</time>
      </trkpt>
      <trkpt lat="43.73287" lon="6.60661">
        <ele>998.9</ele>
        <time>2023-09-25T12:05:44Z</time>
      </trkpt>
      <trkpt lat="43.73283" lon="6.60648">
        <ele>998.3</ele>
        <time>2023-09-25T12:05:53Z</time>
      </trkpt>
      <trkpt lat="43.73282" lon="6.60636">
        <ele>997.8</ele>
        <time>2023-09-25T12:06:02Z</time>
      </trkpt>
      <trkpt lat="43.7328" lon="6.60623">
        <ele>997.7</ele>
        <time>2023-09-25T12:06:10Z</time>
      </trkpt>
      <trkpt lat="43.7328" lon="6.6061">
        <ele>997.3</ele>
        <time>2023-09-25T12:06:18Z</time>
      </trkpt>
      <trkpt lat="43.73278" lon="6.60598">
        <ele>997.1</ele>
        <time>2023-09-25T12:06:30Z</time>
      </trkpt>
      <trkpt lat="43.73278" lon="6.60585">
        <ele>997</ele>
        <time>2023-09-25T12:06:39Z</time>
      </trkpt>
      <trkpt lat="43.73279" lon="6.60571">
        <ele>996.6</ele>
        <time>2023-09-25T12:06:53Z</time>
      </trkpt>
      <trkpt lat="43.73279" lon="6.60557">
        <ele>996.6</ele>
        <time>2023-09-25T12:07:03Z</time>
      </trkpt>
      <trkpt lat="43.73279" lon="6.60544">
        <ele>996.6</ele>
        <time>2023-09-25T12:07:12Z</time>
      </trkpt>
      <trkpt lat="43.7328" lon="6.60531">
        <ele>996.2</ele>
        <time>2023-09-25T12:07:25Z</time>
      </trkpt>
      <trkpt lat="43.73279" lon="6.60518">
        <ele>996</ele>
        <time>2023-09-25T12:07:33Z</time>
      </trkpt>
      <trkpt lat="43.73278" lon="6.60505">
        <ele>995.9</ele>
        <time>2023-09-25T12:07:42Z</time>
      </trkpt>
      <trkpt lat="43.73278" lon="6.60492">
        <ele>995.8</ele>
        <time>2023-09-25T12:07:54Z</time>
      </trkpt>
      <trkpt lat="43.73279" lon="6.60479">
        <ele>995.7</ele>
        <time>2023-09-25T12:08:04Z</time>
      </trkpt>
      <trkpt lat="43.73279" lon="6.60466">
        <ele>995.4</ele>
        <time>2023-09-25T12:08:14Z</time>
      </trkpt>
      <trkpt lat="43.73277" lon="6.60454">
        <ele>995.2</ele>
        <time>2023-09-25T12:08:22Z</time>
      </trkpt>
      <trkpt lat="43.73277" lon="6.60441">
        <ele>994.9</ele>
        <time>2023-09-25T12:08:34Z</time>
      </trkpt>
      <trkpt lat="43.73276" lon="6.60427">
        <ele>994.6</ele>
        <time>2023-09-25T12:08:43Z</time>
      </trkpt>
      <trkpt lat="43.73272" lon="6.60415">
        <ele>994.4</ele>
        <time>2023-09-25T12:08:52Z</time>
      </trkpt>
      <trkpt lat="43.73268" lon="6.60404">
        <ele>994</ele>
        <time>2023-09-25T12:09:04Z</time>
      </trkpt>
      <trkpt lat="43.73265" lon="6.60392">
        <ele>994</ele>
        <time>2023-09-25T12:09:14Z</time>
      </trkpt>
      <trkpt lat="43.73262" lon="6.60378">
        <ele>993.9</ele>
        <time>2023-09-25T12:09:22Z</time>
      </trkpt>
      <trkpt lat="43.73259" lon="6.60366">
        <ele>993.8</ele>
        <time>2023-09-25T12:09:31Z</time>
      </trkpt>
      <trkpt lat="43.73255" lon="6.60354">
        <ele>993.4</ele>
        <time>2023-09-25T12:09:46Z</time>
      </trkpt>
      <trkpt lat="43.73254" lon="6.60342">
        <ele>993.1</ele>
        <time>2023-09-25T12:09:57Z</time>
      </trkpt>
      <trkpt lat="43.73252" lon="6.60329">
        <ele>992.4</ele>
        <time>2023-09-25T12:10:07Z</time>
      </trkpt>
      <trkpt lat="43.73251" lon="6.60316">
        <ele>991.9</ele>
        <time>2023-09-25T12:10:17Z</time>
      </trkpt>
      <trkpt lat="43.73249" lon="6.60303">
        <ele>992</ele>
        <time>2023-09-25T12:10:26Z</time>
      </trkpt>
      <trkpt lat="43.73247" lon="6.6029">
        <ele>991.9</ele>
        <time>2023-09-25T12:10:38Z</time>
      </trkpt>
      <trkpt lat="43.73245" lon="6.60276">
        <ele>992.4</ele>
        <time>2023-09-25T12:11:12Z</time>
      </trkpt>
      <trkpt lat="43.73243" lon="6.60263">
        <ele>992.4</ele>
        <time>2023-09-25T12:11:20Z</time>
      </trkpt>
      <trkpt lat="43.73242" lon="6.6025">
        <ele>992.3</ele>
        <time>2023-09-25T12:11:28Z</time>
      </trkpt>
      <trkpt lat="43.73242" lon="6.60237">
        <ele>992.1</ele>
        <time>2023-09-25T12:11:37Z</time>
      </trkpt>
      <trkpt lat="43.73241" lon="6.60224">
        <ele>991.7</ele>
        <time>2023-09-25T12:11:48Z</time>
      </trkpt>
      <trkpt lat="43.73241" lon="6.60212">
        <ele>991.2</ele>
        <time>2023-09-25T12:11:58Z</time>
      </trkpt>
      <trkpt lat="43.73242" lon="6.60198">
        <ele>990.9</ele>
        <time>2023-09-25T12:12:07Z</time>
      </trkpt>
      <trkpt lat="43.73242" lon="6.60184">
        <ele>990.5</ele>
        <time>2023-09-25T12:12:15Z</time>
      </trkpt>
      <trkpt lat="43.7324" lon="6.6017">
        <ele>990.1</ele>
        <time>2023-09-25T12:12:24Z</time>
      </trkpt>
      <trkpt lat="43.73238" lon="6.60157">
        <ele>989.4</ele>
        <time>2023-09-25T12:12:34Z</time>
      </trkpt>
      <trkpt lat="43.73234" lon="6.60145">
        <ele>988.6</ele>
        <time>2023-09-25T12:12:44Z</time>
      </trkpt>
      <trkpt lat="43.73229" lon="6.60132">
        <ele>987.6</ele>
        <time>2023-09-25T12:12:54Z</time>
      </trkpt>
      <trkpt lat="43.73228" lon="6.60118">
        <ele>987.3</ele>
        <time>2023-09-25T12:13:05Z</time>
      </trkpt>
      <trkpt lat="43.73226" lon="6.60105">
        <ele>987.3</ele>
        <time>2023-09-25T12:13:14Z</time>
      </trkpt>
      <trkpt lat="43.73224" lon="6.60091">
        <ele>987.2</ele>
        <time>2023-09-25T12:13:24Z</time>
      </trkpt>
      <trkpt lat="43.73222" lon="6.60079">
        <ele>987.1</ele>
        <time>2023-09-25T12:13:32Z</time>
      </trkpt>
      <trkpt lat="43.73218" lon="6.60067">
        <ele>986.6</ele>
        <time>2023-09-25T12:13:43Z</time>
      </trkpt>
      <trkpt lat="43.73215" lon="6.60055">
        <ele>986.3</ele>
        <time>2023-09-25T12:13:53Z</time>
      </trkpt>
      <trkpt lat="43.73209" lon="6.60045">
        <ele>984.8</ele>
        <time>2023-09-25T12:14:08Z</time>
      </trkpt>
      <trkpt lat="43.73204" lon="6.60033">
        <ele>985.3</ele>
        <time>2023-09-25T12:14:20Z</time>
      </trkpt>
      <trkpt lat="43.732" lon="6.60022">
        <ele>985</ele>
        <time>2023-09-25T12:14:32Z</time>
      </trkpt>
      <trkpt lat="43.73197" lon="6.6001">
        <ele>984.5</ele>
        <time>2023-09-25T12:14:39Z</time>
      </trkpt>
      <trkpt lat="43.73194" lon="6.59996">
        <ele>983.9</ele>
        <time>2023-09-25T12:14:48Z</time>
      </trkpt>
      <trkpt lat="43.73194" lon="6.59983">
        <ele>983.4</ele>
        <time>2023-09-25T12:14:57Z</time>
      </trkpt>
      <trkpt lat="43.73191" lon="6.5997">
        <ele>983</ele>
        <time>2023-09-25T12:15:07Z</time>
      </trkpt>
      <trkpt lat="43.73189" lon="6.59957">
        <ele>982.8</ele>
        <time>2023-09-25T12:15:15Z</time>
      </trkpt>
      <trkpt lat="43.73185" lon="6.59946">
        <ele>982.4</ele>
        <time>2023-09-25T12:15:27Z</time>
      </trkpt>
      <trkpt lat="43.7318" lon="6.59934">
        <ele>981.8</ele>
        <time>2023-09-25T12:15:37Z</time>
      </trkpt>
      <trkpt lat="43.73175" lon="6.59924">
        <ele>981.1</ele>
        <time>2023-09-25T12:15:47Z</time>
      </trkpt>
      <trkpt lat="43.73172" lon="6.59911">
        <ele>980.9</ele>
        <time>2023-09-25T12:15:59Z</time>
      </trkpt>
      <trkpt lat="43.7317" lon="6.59898">
        <ele>980.9</ele>
        <time>2023-09-25T12:16:09Z</time>
      </trkpt>
      <trkpt lat="43.73166" lon="6.59886">
        <ele>980.4</ele>
        <time>2023-09-25T12:16:19Z</time>
      </trkpt>
      <trkpt lat="43.73162" lon="6.59874">
        <ele>980.1</ele>
        <time>2023-09-25T12:16:29Z</time>
      </trkpt>
      <trkpt lat="43.73156" lon="6.59865">
        <ele>979.8</ele>
        <time>2023-09-25T12:16:38Z</time>
      </trkpt>
      <trkpt lat="43.73151" lon="6.59854">
        <ele>979.7</ele>
        <time>2023-09-25T12:16:48Z</time>
      </trkpt>
      <trkpt lat="43.73146" lon="6.59844">
        <ele>979.6</ele>
        <time>2023-09-25T12:16:58Z</time>
      </trkpt>
      <trkpt lat="43.73141" lon="6.59832">
        <ele>979.7</ele>
        <time>2023-09-25T12:17:09Z</time>
      </trkpt>
      <trkpt lat="43.73137" lon="6.59821">
        <ele>979.7</ele>
        <time>2023-09-25T12:17:17Z</time>
      </trkpt>
      <trkpt lat="43.73132" lon="6.5981">
        <ele>979.3</ele>
        <time>2023-09-25T12:17:26Z</time>
      </trkpt>
      <trkpt lat="43.73128" lon="6.59798">
        <ele>978.7</ele>
        <time>2023-09-25T12:17:37Z</time>
      </trkpt>
      <trkpt lat="43.73127" lon="6.59785">
        <ele>976.6</ele>
        <time>2023-09-25T12:19:09Z</time>
      </trkpt>
      <trkpt lat="43.73126" lon="6.59772">
        <ele>975.5</ele>
        <time>2023-09-25T12:24:01Z</time>
      </trkpt>
      <trkpt lat="43.73121" lon="6.59761">
        <ele>974.6</ele>
        <time>2023-09-25T12:24:20Z</time>
      </trkpt>
      <trkpt lat="43.73117" lon="6.5975">
        <ele>973.3</ele>
        <time>2023-09-25T12:24:31Z</time>
      </trkpt>
      <trkpt lat="43.73109" lon="6.59741">
        <ele>971.8</ele>
        <time>2023-09-25T12:24:44Z</time>
      </trkpt>
      <trkpt lat="43.73104" lon="6.59731">
        <ele>971.1</ele>
        <time>2023-09-25T12:24:58Z</time>
      </trkpt>
      <trkpt lat="43.73101" lon="6.59719">
        <ele>970.9</ele>
        <time>2023-09-25T12:25:08Z</time>
      </trkpt>
      <trkpt lat="43.731" lon="6.59706">
        <ele>970.5</ele>
        <time>2023-09-25T12:25:18Z</time>
      </trkpt>
      <trkpt lat="43.731" lon="6.59692">
        <ele>970.3</ele>
        <time>2023-09-25T12:25:45Z</time>
      </trkpt>
      <trkpt lat="43.73103" lon="6.5968">
        <ele>970.2</ele>
        <time>2023-09-25T12:25:56Z</time>
      </trkpt>
      <trkpt lat="43.73106" lon="6.59667">
        <ele>970</ele>
        <time>2023-09-25T12:26:07Z</time>
      </trkpt>
      <trkpt lat="43.73107" lon="6.59654">
        <ele>969.7</ele>
        <time>2023-09-25T12:26:16Z</time>
      </trkpt>
      <trkpt lat="43.73109" lon="6.59641">
        <ele>969.3</ele>
        <time>2023-09-25T12:26:26Z</time>
      </trkpt>
      <trkpt lat="43.73112" lon="6.59629">
        <ele>968.1</ele>
        <time>2023-09-25T12:26:48Z</time>
      </trkpt>
      <trkpt lat="43.73113" lon="6.59617">
        <ele>967.3</ele>
        <time>2023-09-25T12:27:14Z</time>
      </trkpt>
      <trkpt lat="43.73115" lon="6.59604">
        <ele>966.5</ele>
        <time>2023-09-25T12:27:29Z</time>
      </trkpt>
      <trkpt lat="43.73115" lon="6.59592">
        <ele>965.9</ele>
        <time>2023-09-25T12:27:38Z</time>
      </trkpt>
      <trkpt lat="43.73116" lon="6.59578">
        <ele>964.4</ele>
        <time>2023-09-25T12:27:50Z</time>
      </trkpt>
      <trkpt lat="43.73119" lon="6.59566">
        <ele>963</ele>
        <time>2023-09-25T12:28:02Z</time>
      </trkpt>
      <trkpt lat="43.73118" lon="6.59553">
        <ele>962.5</ele>
        <time>2023-09-25T12:28:12Z</time>
      </trkpt>
      <trkpt lat="43.73119" lon="6.5954">
        <ele>961.7</ele>
        <time>2023-09-25T12:28:22Z</time>
      </trkpt>
      <trkpt lat="43.73118" lon="6.59528">
        <ele>961.2</ele>
        <time>2023-09-25T12:28:30Z</time>
      </trkpt>
      <trkpt lat="43.73118" lon="6.59515">
        <ele>960.8</ele>
        <time>2023-09-25T12:28:39Z</time>
      </trkpt>
      <trkpt lat="43.73118" lon="6.59502">
        <ele>960.5</ele>
        <time>2023-09-25T12:28:49Z</time>
      </trkpt>
      <trkpt lat="43.73117" lon="6.59489">
        <ele>960.3</ele>
        <time>2023-09-25T12:28:59Z</time>
      </trkpt>
      <trkpt lat="43.73117" lon="6.59476">
        <ele>960.2</ele>
        <time>2023-09-25T12:29:10Z</time>
      </trkpt>
      <trkpt lat="43.73116" lon="6.59463">
        <ele>959.9</ele>
        <time>2023-09-25T12:29:23Z</time>
      </trkpt>
      <trkpt lat="43.73114" lon="6.5945">
        <ele>959.4</ele>
        <time>2023-09-25T12:29:35Z</time>
      </trkpt>
      <trkpt lat="43.73112" lon="6.59436">
        <ele>959.1</ele>
        <time>2023-09-25T12:29:45Z</time>
      </trkpt>
      <trkpt lat="43.7311" lon="6.59423">
        <ele>959</ele>
        <time>2023-09-25T12:29:55Z</time>
      </trkpt>
      <trkpt lat="43.7311" lon="6.5941">
        <ele>958.8</ele>
        <time>2023-09-25T12:30:05Z</time>
      </trkpt>
      <trkpt lat="43.73108" lon="6.59398">
        <ele>958.7</ele>
        <time>2023-09-25T12:30:18Z</time>
      </trkpt>
      <trkpt lat="43.73108" lon="6.59385">
        <ele>958.4</ele>
        <time>2023-09-25T12:30:31Z</time>
      </trkpt>
      <trkpt lat="43.73105" lon="6.59373">
        <ele>958.1</ele>
        <time>2023-09-25T12:30:42Z</time>
      </trkpt>
      <trkpt lat="43.73103" lon="6.59361">
        <ele>957.9</ele>
        <time>2023-09-25T12:30:51Z</time>
      </trkpt>
      <trkpt lat="43.731" lon="6.59348">
        <ele>957.8</ele>
        <time>2023-09-25T12:31:01Z</time>
      </trkpt>
      <trkpt lat="43.73096" lon="6.59336">
        <ele>957.7</ele>
        <time>2023-09-25T12:31:09Z</time>
      </trkpt>
      <trkpt lat="43.7309" lon="6.59326">
        <ele>957.5</ele>
        <time>2023-09-25T12:31:17Z</time>
      </trkpt>
      <trkpt lat="43.73085" lon="6.59315">
        <ele>957.3</ele>
        <time>2023-09-25T12:31:27Z</time>
      </trkpt>
      <trkpt lat="43.73082" lon="6.59303">
        <ele>956.7</ele>
        <time>2023-09-25T12:32:16Z</time>
      </trkpt>
      <trkpt lat="43.73076" lon="6.59294">
        <ele>956.5</ele>
        <time>2023-09-25T12:32:36Z</time>
      </trkpt>
      <trkpt lat="43.73071" lon="6.59282">
        <ele>956.1</ele>
        <time>2023-09-25T12:32:47Z</time>
      </trkpt>
      <trkpt lat="43.73068" lon="6.59269">
        <ele>956</ele>
        <time>2023-09-25T12:32:58Z</time>
      </trkpt>
      <trkpt lat="43.73067" lon="6.59256">
        <ele>955.9</ele>
        <time>2023-09-25T12:33:08Z</time>
      </trkpt>
      <trkpt lat="43.73065" lon="6.59243">
        <ele>955.6</ele>
        <time>2023-09-25T12:33:19Z</time>
      </trkpt>
      <trkpt lat="43.73068" lon="6.5923">
        <ele>955.3</ele>
        <time>2023-09-25T12:33:31Z</time>
      </trkpt>
      <trkpt lat="43.7306" lon="6.59236">
        <ele>954.9</ele>
        <time>2023-09-25T12:34:59Z</time>
      </trkpt>
      <trkpt lat="43.73069" lon="6.59237">
        <ele>955</ele>
        <time>2023-09-25T12:36:22Z</time>
      </trkpt>
      <trkpt lat="43.73065" lon="6.59226">
        <ele>954.8</ele>
        <time>2023-09-25T12:38:23Z</time>
      </trkpt>
      <trkpt lat="43.73057" lon="6.59218">
        <ele>954.4</ele>
        <time>2023-09-25T12:38:36Z</time>
      </trkpt>
      <trkpt lat="43.73054" lon="6.59206">
        <ele>953.7</ele>
        <time>2023-09-25T12:38:48Z</time>
      </trkpt>
      <trkpt lat="43.73051" lon="6.59193">
        <ele>953.3</ele>
        <time>2023-09-25T12:38:59Z</time>
      </trkpt>
      <trkpt lat="43.73047" lon="6.59182">
        <ele>953</ele>
        <time>2023-09-25T12:39:09Z</time>
      </trkpt>
      <trkpt lat="43.73043" lon="6.5917">
        <ele>952.6</ele>
        <time>2023-09-25T12:39:20Z</time>
      </trkpt>
      <trkpt lat="43.73038" lon="6.59159">
        <ele>952.3</ele>
        <time>2023-09-25T12:39:30Z</time>
      </trkpt>
      <trkpt lat="43.73033" lon="6.59147">
        <ele>951.7</ele>
        <time>2023-09-25T12:39:41Z</time>
      </trkpt>
      <trkpt lat="43.73027" lon="6.59136">
        <ele>951.5</ele>
        <time>2023-09-25T12:39:54Z</time>
      </trkpt>
      <trkpt lat="43.73022" lon="6.59125">
        <ele>950.9</ele>
        <time>2023-09-25T12:40:04Z</time>
      </trkpt>
      <trkpt lat="43.73017" lon="6.59113">
        <ele>950.4</ele>
        <time>2023-09-25T12:40:14Z</time>
      </trkpt>
      <trkpt lat="43.73011" lon="6.59103">
        <ele>950.2</ele>
        <time>2023-09-25T12:40:23Z</time>
      </trkpt>
      <trkpt lat="43.73007" lon="6.5909">
        <ele>950</ele>
        <time>2023-09-25T12:40:33Z</time>
      </trkpt>
      <trkpt lat="43.73002" lon="6.59079">
        <ele>949.9</ele>
        <time>2023-09-25T12:40:42Z</time>
      </trkpt>
      <trkpt lat="43.72998" lon="6.59067">
        <ele>949.4</ele>
        <time>2023-09-25T12:40:52Z</time>
      </trkpt>
      <trkpt lat="43.72993" lon="6.59056">
        <ele>949.1</ele>
        <time>2023-09-25T12:41:02Z</time>
      </trkpt>
      <trkpt lat="43.72989" lon="6.59045">
        <ele>949</ele>
        <time>2023-09-25T12:41:10Z</time>
      </trkpt>
      <trkpt lat="43.72984" lon="6.59034">
        <ele>948.6</ele>
        <time>2023-09-25T12:41:19Z</time>
      </trkpt>
      <trkpt lat="43.72977" lon="6.59026">
        <ele>948.4</ele>
        <time>2023-09-25T12:41:28Z</time>
      </trkpt>
      <trkpt lat="43.72969" lon="6.59018">
        <ele>948.3</ele>
        <time>2023-09-25T12:41:37Z</time>
      </trkpt>
      <trkpt lat="43.72961" lon="6.59012">
        <ele>948.1</ele>
        <time>2023-09-25T12:41:46Z</time>
      </trkpt>
      <trkpt lat="43.72953" lon="6.59004">
        <ele>948</ele>
        <time>2023-09-25T12:41:55Z</time>
      </trkpt>
      <trkpt lat="43.72945" lon="6.58997">
        <ele>947.7</ele>
        <time>2023-09-25T12:42:04Z</time>
      </trkpt>
      <trkpt lat="43.72937" lon="6.58988">
        <ele>947.3</ele>
        <time>2023-09-25T12:42:13Z</time>
      </trkpt>
      <trkpt lat="43.72929" lon="6.58981">
        <ele>947</ele>
        <time>2023-09-25T12:42:22Z</time>
      </trkpt>
      <trkpt lat="43.72923" lon="6.58972">
        <ele>946.8</ele>
        <time>2023-09-25T12:42:31Z</time>
      </trkpt>
      <trkpt lat="43.72919" lon="6.5896">
        <ele>947</ele>
        <time>2023-09-25T12:42:52Z</time>
      </trkpt>
      <trkpt lat="43.72917" lon="6.58947">
        <ele>947.4</ele>
        <time>2023-09-25T12:43:03Z</time>
      </trkpt>
      <trkpt lat="43.72913" lon="6.58935">
        <ele>947.6</ele>
        <time>2023-09-25T12:43:13Z</time>
      </trkpt>
      <trkpt lat="43.7291" lon="6.58923">
        <ele>947.8</ele>
        <time>2023-09-25T12:43:23Z</time>
      </trkpt>
      <trkpt lat="43.72907" lon="6.5891">
        <ele>947.5</ele>
        <time>2023-09-25T12:43:40Z</time>
      </trkpt>
      <trkpt lat="43.72903" lon="6.589">
        <ele>947.2</ele>
        <time>2023-09-25T12:43:49Z</time>
      </trkpt>
      <trkpt lat="43.72898" lon="6.58888">
        <ele>947</ele>
        <time>2023-09-25T12:43:58Z</time>
      </trkpt>
      <trkpt lat="43.72895" lon="6.58875">
        <ele>947.7</ele>
        <time>2023-09-25T12:44:08Z</time>
      </trkpt>
      <trkpt lat="43.72894" lon="6.58862">
        <ele>948.8</ele>
        <time>2023-09-25T12:44:19Z</time>
      </trkpt>
      <trkpt lat="43.72891" lon="6.5885">
        <ele>950.3</ele>
        <time>2023-09-25T12:44:30Z</time>
      </trkpt>
      <trkpt lat="43.72888" lon="6.58838">
        <ele>951.8</ele>
        <time>2023-09-25T12:44:42Z</time>
      </trkpt>
      <trkpt lat="43.72887" lon="6.58825">
        <ele>953.4</ele>
        <time>2023-09-25T12:44:53Z</time>
      </trkpt>
      <trkpt lat="43.72887" lon="6.58812">
        <ele>955</ele>
        <time>2023-09-25T12:45:05Z</time>
      </trkpt>
      <trkpt lat="43.72889" lon="6.58799">
        <ele>956.5</ele>
        <time>2023-09-25T12:45:16Z</time>
      </trkpt>
      <trkpt lat="43.72892" lon="6.58787">
        <ele>958</ele>
        <time>2023-09-25T12:45:33Z</time>
      </trkpt>
      <trkpt lat="43.72895" lon="6.58774">
        <ele>958.8</ele>
        <time>2023-09-25T12:45:44Z</time>
      </trkpt>
      <trkpt lat="43.72896" lon="6.58761">
        <ele>959.3</ele>
        <time>2023-09-25T12:45:54Z</time>
      </trkpt>
      <trkpt lat="43.72897" lon="6.58749">
        <ele>960.3</ele>
        <time>2023-09-25T12:46:04Z</time>
      </trkpt>
      <trkpt lat="43.72896" lon="6.58736">
        <ele>961.3</ele>
        <time>2023-09-25T12:46:13Z</time>
      </trkpt>
      <trkpt lat="43.72895" lon="6.58723">
        <ele>962.5</ele>
        <time>2023-09-25T12:46:23Z</time>
      </trkpt>
      <trkpt lat="43.72894" lon="6.5871">
        <ele>963.4</ele>
        <time>2023-09-25T12:46:31Z</time>
      </trkpt>
      <trkpt lat="43.72894" lon="6.58698">
        <ele>964.5</ele>
        <time>2023-09-25T12:46:46Z</time>
      </trkpt>
      <trkpt lat="43.72892" lon="6.58684">
        <ele>965.7</ele>
        <time>2023-09-25T12:46:59Z</time>
      </trkpt>
      <trkpt lat="43.72891" lon="6.58671">
        <ele>966.8</ele>
        <time>2023-09-25T12:47:09Z</time>
      </trkpt>
      <trkpt lat="43.7289" lon="6.58658">
        <ele>967.8</ele>
        <time>2023-09-25T12:47:17Z</time>
      </trkpt>
      <trkpt lat="43.72889" lon="6.58646">
        <ele>968.8</ele>
        <time>2023-09-25T12:47:27Z</time>
      </trkpt>
      <trkpt lat="43.72889" lon="6.58632">
        <ele>969.9</ele>
        <time>2023-09-25T12:47:37Z</time>
      </trkpt>
      <trkpt lat="43.7289" lon="6.5862">
        <ele>970.9</ele>
        <time>2023-09-25T12:47:46Z</time>
      </trkpt>
      <trkpt lat="43.72891" lon="6.58607">
        <ele>972.1</ele>
        <time>2023-09-25T12:47:57Z</time>
      </trkpt>
      <trkpt lat="43.7289" lon="6.58594">
        <ele>972.8</ele>
        <time>2023-09-25T12:48:08Z</time>
      </trkpt>
      <trkpt lat="43.72886" lon="6.58582">
        <ele>972.9</ele>
        <time>2023-09-25T12:48:19Z</time>
      </trkpt>
      <trkpt lat="43.72885" lon="6.58569">
        <ele>973</ele>
        <time>2023-09-25T12:48:30Z</time>
      </trkpt>
      <trkpt lat="43.72885" lon="6.58556">
        <ele>973.2</ele>
        <time>2023-09-25T12:48:38Z</time>
      </trkpt>
      <trkpt lat="43.72886" lon="6.58544">
        <ele>973.2</ele>
        <time>2023-09-25T12:48:46Z</time>
      </trkpt>
      <trkpt lat="43.72886" lon="6.58531">
        <ele>973.3</ele>
        <time>2023-09-25T12:48:55Z</time>
      </trkpt>
      <trkpt lat="43.72886" lon="6.58518">
        <ele>973.3</ele>
        <time>2023-09-25T12:49:03Z</time>
      </trkpt>
      <trkpt lat="43.72886" lon="6.58505">
        <ele>973.6</ele>
        <time>2023-09-25T12:49:11Z</time>
      </trkpt>
      <trkpt lat="43.72885" lon="6.58492">
        <ele>974.2</ele>
        <time>2023-09-25T12:49:21Z</time>
      </trkpt>
      <trkpt lat="43.72884" lon="6.58479">
        <ele>974.9</ele>
        <time>2023-09-25T12:49:31Z</time>
      </trkpt>
      <trkpt lat="43.72885" lon="6.58466">
        <ele>975.7</ele>
        <time>2023-09-25T12:49:40Z</time>
      </trkpt>
      <trkpt lat="43.72884" lon="6.58453">
        <ele>976.3</ele>
        <time>2023-09-25T12:49:49Z</time>
      </trkpt>
      <trkpt lat="43.72882" lon="6.58439">
        <ele>976.4</ele>
        <time>2023-09-25T12:49:58Z</time>
      </trkpt>
      <trkpt lat="43.72881" lon="6.58425">
        <ele>976.3</ele>
        <time>2023-09-25T12:50:06Z</time>
      </trkpt>
      <trkpt lat="43.72883" lon="6.58413">
        <ele>976.2</ele>
        <time>2023-09-25T12:50:14Z</time>
      </trkpt>
      <trkpt lat="43.72882" lon="6.584">
        <ele>976.2</ele>
        <time>2023-09-25T12:50:21Z</time>
      </trkpt>
      <trkpt lat="43.72881" lon="6.58387">
        <ele>976.2</ele>
        <time>2023-09-25T12:50:29Z</time>
      </trkpt>
      <trkpt lat="43.72879" lon="6.58374">
        <ele>976.2</ele>
        <time>2023-09-25T12:50:37Z</time>
      </trkpt>
      <trkpt lat="43.72878" lon="6.58362">
        <ele>976.1</ele>
        <time>2023-09-25T12:50:45Z</time>
      </trkpt>
      <trkpt lat="43.72878" lon="6.58349">
        <ele>976</ele>
        <time>2023-09-25T12:50:53Z</time>
      </trkpt>
      <trkpt lat="43.72879" lon="6.58337">
        <ele>975.8</ele>
        <time>2023-09-25T12:51:01Z</time>
      </trkpt>
      <trkpt lat="43.72882" lon="6.58325">
        <ele>975.6</ele>
        <time>2023-09-25T12:51:08Z</time>
      </trkpt>
      <trkpt lat="43.72881" lon="6.58311">
        <ele>975.5</ele>
        <time>2023-09-25T12:51:16Z</time>
      </trkpt>
      <trkpt lat="43.72882" lon="6.58297">
        <ele>975.5</ele>
        <time>2023-09-25T12:51:25Z</time>
      </trkpt>
      <trkpt lat="43.72883" lon="6.58283">
        <ele>975.7</ele>
        <time>2023-09-25T12:51:34Z</time>
      </trkpt>
      <trkpt lat="43.72883" lon="6.5827">
        <ele>976.2</ele>
        <time>2023-09-25T12:51:43Z</time>
      </trkpt>
      <trkpt lat="43.72883" lon="6.58257">
        <ele>976.6</ele>
        <time>2023-09-25T12:51:52Z</time>
      </trkpt>
      <trkpt lat="43.72882" lon="6.58243">
        <ele>977.2</ele>
        <time>2023-09-25T12:52:01Z</time>
      </trkpt>
      <trkpt lat="43.72882" lon="6.5823">
        <ele>977.5</ele>
        <time>2023-09-25T12:52:09Z</time>
      </trkpt>
      <trkpt lat="43.72881" lon="6.58218">
        <ele>977.8</ele>
        <time>2023-09-25T12:52:17Z</time>
      </trkpt>
      <trkpt lat="43.72881" lon="6.58204">
        <ele>978</ele>
        <time>2023-09-25T12:52:27Z</time>
      </trkpt>
      <trkpt lat="43.72879" lon="6.58192">
        <ele>978.5</ele>
        <time>2023-09-25T12:52:36Z</time>
      </trkpt>
      <trkpt lat="43.72879" lon="6.58179">
        <ele>978.8</ele>
        <time>2023-09-25T12:52:44Z</time>
      </trkpt>
      <trkpt lat="43.72879" lon="6.58166">
        <ele>979.3</ele>
        <time>2023-09-25T12:52:53Z</time>
      </trkpt>
      <trkpt lat="43.72878" lon="6.58152">
        <ele>979.8</ele>
        <time>2023-09-25T12:53:02Z</time>
      </trkpt>
      <trkpt lat="43.72871" lon="6.58145">
        <ele>980.9</ele>
        <time>2023-09-25T12:58:08Z</time>
      </trkpt>
      <trkpt lat="43.72879" lon="6.58137">
        <ele>981.5</ele>
        <time>2023-09-25T13:03:55Z</time>
      </trkpt>
      <trkpt lat="43.72885" lon="6.58127">
        <ele>981.4</ele>
        <time>2023-09-25T13:04:03Z</time>
      </trkpt>
      <trkpt lat="43.72889" lon="6.58115">
        <ele>981.5</ele>
        <time>2023-09-25T13:04:12Z</time>
      </trkpt>
      <trkpt lat="43.72888" lon="6.58102">
        <ele>981.6</ele>
        <time>2023-09-25T13:04:20Z</time>
      </trkpt>
      <trkpt lat="43.72888" lon="6.58088">
        <ele>981.1</ele>
        <time>2023-09-25T13:04:28Z</time>
      </trkpt>
      <trkpt lat="43.72889" lon="6.58075">
        <ele>980.3</ele>
        <time>2023-09-25T13:04:36Z</time>
      </trkpt>
      <trkpt lat="43.72889" lon="6.58061">
        <ele>980</ele>
        <time>2023-09-25T13:04:44Z</time>
      </trkpt>
      <trkpt lat="43.72889" lon="6.58048">
        <ele>979.7</ele>
        <time>2023-09-25T13:04:52Z</time>
      </trkpt>
      <trkpt lat="43.72889" lon="6.58034">
        <ele>979.2</ele>
        <time>2023-09-25T13:05:00Z</time>
      </trkpt>
      <trkpt lat="43.72888" lon="6.58021">
        <ele>978.7</ele>
        <time>2023-09-25T13:05:09Z</time>
      </trkpt>
      <trkpt lat="43.72888" lon="6.58009">
        <ele>978.5</ele>
        <time>2023-09-25T13:05:17Z</time>
      </trkpt>
      <trkpt lat="43.72888" lon="6.57995">
        <ele>978.2</ele>
        <time>2023-09-25T13:05:26Z</time>
      </trkpt>
      <trkpt lat="43.7289" lon="6.57983">
        <ele>977.9</ele>
        <time>2023-09-25T13:05:34Z</time>
      </trkpt>
      <trkpt lat="43.72894" lon="6.57971">
        <ele>977.6</ele>
        <time>2023-09-25T13:05:42Z</time>
      </trkpt>
      <trkpt lat="43.72899" lon="6.5796">
        <ele>977.3</ele>
        <time>2023-09-25T13:05:50Z</time>
      </trkpt>
      <trkpt lat="43.72903" lon="6.57948">
        <ele>977</ele>
        <time>2023-09-25T13:05:59Z</time>
      </trkpt>
      <trkpt lat="43.72908" lon="6.57937">
        <ele>976.5</ele>
        <time>2023-09-25T13:06:07Z</time>
      </trkpt>
      <trkpt lat="43.72914" lon="6.57927">
        <ele>976.2</ele>
        <time>2023-09-25T13:06:55Z</time>
      </trkpt>
      <trkpt lat="43.7292" lon="6.57917">
        <ele>976.5</ele>
        <time>2023-09-25T13:07:14Z</time>
      </trkpt>
      <trkpt lat="43.72927" lon="6.57907">
        <ele>976.3</ele>
        <time>2023-09-25T13:07:23Z</time>
      </trkpt>
      <trkpt lat="43.72932" lon="6.57897">
        <ele>976.3</ele>
        <time>2023-09-25T13:07:32Z</time>
      </trkpt>
      <trkpt lat="43.72939" lon="6.57887">
        <ele>976</ele>
        <time>2023-09-25T13:07:41Z</time>
      </trkpt>
      <trkpt lat="43.72946" lon="6.57878">
        <ele>975.5</ele>
        <time>2023-09-25T13:07:51Z</time>
      </trkpt>
      <trkpt lat="43.72951" lon="6.57866">
        <ele>974.9</ele>
        <time>2023-09-25T13:08:05Z</time>
      </trkpt>
      <trkpt lat="43.72949" lon="6.57853">
        <ele>974.8</ele>
        <time>2023-09-25T13:08:15Z</time>
      </trkpt>
      <trkpt lat="43.72942" lon="6.57844">
        <ele>975</ele>
        <time>2023-09-25T13:08:25Z</time>
      </trkpt>
      <trkpt lat="43.72934" lon="6.57838">
        <ele>975.8</ele>
        <time>2023-09-25T13:08:37Z</time>
      </trkpt>
      <trkpt lat="43.72928" lon="6.57828">
        <ele>977</ele>
        <time>2023-09-25T13:08:49Z</time>
      </trkpt>
      <trkpt lat="43.72923" lon="6.57817">
        <ele>979.1</ele>
        <time>2023-09-25T13:09:05Z</time>
      </trkpt>
      <trkpt lat="43.72914" lon="6.57813">
        <ele>981.4</ele>
        <time>2023-09-25T13:09:23Z</time>
      </trkpt>
      <trkpt lat="43.72914" lon="6.578">
        <ele>983.8</ele>
        <time>2023-09-25T13:09:59Z</time>
      </trkpt>
      <trkpt lat="43.72912" lon="6.57787">
        <ele>986</ele>
        <time>2023-09-25T13:10:26Z</time>
      </trkpt>
      <trkpt lat="43.72911" lon="6.57775">
        <ele>989.6</ele>
        <time>2023-09-25T13:10:42Z</time>
      </trkpt>
      <trkpt lat="43.72911" lon="6.57762">
        <ele>990.5</ele>
        <time>2023-09-25T13:11:05Z</time>
      </trkpt>
      <trkpt lat="43.72913" lon="6.57749">
        <ele>992.4</ele>
        <time>2023-09-25T13:11:29Z</time>
      </trkpt>
      <trkpt lat="43.72911" lon="6.57737">
        <ele>995.4</ele>
        <time>2023-09-25T13:11:51Z</time>
      </trkpt>
      <trkpt lat="43.72906" lon="6.57725">
        <ele>997.3</ele>
        <time>2023-09-25T13:12:06Z</time>
      </trkpt>
      <trkpt lat="43.72904" lon="6.57713">
        <ele>999.5</ele>
        <time>2023-09-25T13:12:27Z</time>
      </trkpt>
      <trkpt lat="43.72899" lon="6.57702">
        <ele>1001.6</ele>
        <time>2023-09-25T13:12:47Z</time>
      </trkpt>
      <trkpt lat="43.72894" lon="6.57691">
        <ele>1004</ele>
        <time>2023-09-25T13:13:04Z</time>
      </trkpt>
      <trkpt lat="43.72893" lon="6.57678">
        <ele>1006.5</ele>
        <time>2023-09-25T13:13:21Z</time>
      </trkpt>
      <trkpt lat="43.72895" lon="6.57665">
        <ele>1008.6</ele>
        <time>2023-09-25T13:13:36Z</time>
      </trkpt>
      <trkpt lat="43.72904" lon="6.5767">
        <ele>1011.5</ele>
        <time>2023-09-25T13:18:31Z</time>
      </trkpt>
      <trkpt lat="43.72911" lon="6.57678">
        <ele>1012.9</ele>
        <time>2023-09-25T13:18:46Z</time>
      </trkpt>
      <trkpt lat="43.72919" lon="6.57687">
        <ele>1014.2</ele>
        <time>2023-09-25T13:18:58Z</time>
      </trkpt>
      <trkpt lat="43.72927" lon="6.57694">
        <ele>1015.7</ele>
        <time>2023-09-25T13:19:12Z</time>
      </trkpt>
      <trkpt lat="43.72936" lon="6.57695">
        <ele>1017.3</ele>
        <time>2023-09-25T13:19:51Z</time>
      </trkpt>
      <trkpt lat="43.72945" lon="6.57691">
        <ele>1018.6</ele>
        <time>2023-09-25T13:20:05Z</time>
      </trkpt>
      <trkpt lat="43.72951" lon="6.57681">
        <ele>1020.6</ele>
        <time>2023-09-25T13:20:23Z</time>
      </trkpt>
      <trkpt lat="43.72953" lon="6.57669">
        <ele>1022.2</ele>
        <time>2023-09-25T13:20:54Z</time>
      </trkpt>
      <trkpt lat="43.72955" lon="6.57657">
        <ele>1024.1</ele>
        <time>2023-09-25T13:21:18Z</time>
      </trkpt>
      <trkpt lat="43.72957" lon="6.57645">
        <ele>1025.8</ele>
        <time>2023-09-25T13:21:35Z</time>
      </trkpt>
      <trkpt lat="43.72954" lon="6.57633">
        <ele>1028.6</ele>
        <time>2023-09-25T13:22:01Z</time>
      </trkpt>
      <trkpt lat="43.72956" lon="6.5762">
        <ele>1029.9</ele>
        <time>2023-09-25T13:22:14Z</time>
      </trkpt>
      <trkpt lat="43.72951" lon="6.5761">
        <ele>1032.4</ele>
        <time>2023-09-25T13:22:31Z</time>
      </trkpt>
      <trkpt lat="43.72946" lon="6.57599">
        <ele>1034.2</ele>
        <time>2023-09-25T13:22:46Z</time>
      </trkpt>
      <trkpt lat="43.72947" lon="6.57586">
        <ele>1035.3</ele>
        <time>2023-09-25T13:23:00Z</time>
      </trkpt>
      <trkpt lat="43.72948" lon="6.57573">
        <ele>1036.3</ele>
        <time>2023-09-25T13:23:11Z</time>
      </trkpt>
      <trkpt lat="43.72947" lon="6.5756">
        <ele>1037.2</ele>
        <time>2023-09-25T13:23:22Z</time>
      </trkpt>
      <trkpt lat="43.72945" lon="6.57548">
        <ele>1038.2</ele>
        <time>2023-09-25T13:23:39Z</time>
      </trkpt>
      <trkpt lat="43.72944" lon="6.57535">
        <ele>1039.7</ele>
        <time>2023-09-25T13:23:58Z</time>
      </trkpt>
      <trkpt lat="43.72945" lon="6.57523">
        <ele>1040.9</ele>
        <time>2023-09-25T13:24:12Z</time>
      </trkpt>
      <trkpt lat="43.72946" lon="6.5751">
        <ele>1042.4</ele>
        <time>2023-09-25T13:24:26Z</time>
      </trkpt>
      <trkpt lat="43.72947" lon="6.57497">
        <ele>1043.8</ele>
        <time>2023-09-25T13:24:40Z</time>
      </trkpt>
      <trkpt lat="43.72947" lon="6.57484">
        <ele>1044.7</ele>
        <time>2023-09-25T13:24:49Z</time>
      </trkpt>
      <trkpt lat="43.72948" lon="6.57471">
        <ele>1046.4</ele>
        <time>2023-09-25T13:25:01Z</time>
      </trkpt>
      <trkpt lat="43.72956" lon="6.57464">
        <ele>1051.2</ele>
        <time>2023-09-25T13:25:31Z</time>
      </trkpt>
      <trkpt lat="43.72953" lon="6.57451">
        <ele>1053.9</ele>
        <time>2023-09-25T13:25:47Z</time>
      </trkpt>
      <trkpt lat="43.72961" lon="6.57457">
        <ele>1055.6</ele>
        <time>2023-09-25T13:43:45Z</time>
      </trkpt>
      <trkpt lat="43.72963" lon="6.57469">
        <ele>1055.9</ele>
        <time>2023-09-25T13:43:58Z</time>
      </trkpt>
      <trkpt lat="43.72968" lon="6.57481">
        <ele>1056.6</ele>
        <time>2023-09-25T13:44:13Z</time>
      </trkpt>
      <trkpt lat="43.72973" lon="6.57492">
        <ele>1056.9</ele>
        <time>2023-09-25T13:44:23Z</time>
      </trkpt>
      <trkpt lat="43.72982" lon="6.57497">
        <ele>1058.3</ele>
        <time>2023-09-25T13:44:37Z</time>
      </trkpt>
      <trkpt lat="43.72982" lon="6.57485">
        <ele>1059.8</ele>
        <time>2023-09-25T13:44:55Z</time>
      </trkpt>
      <trkpt lat="43.72978" lon="6.57474">
        <ele>1060.3</ele>
        <time>2023-09-25T13:45:06Z</time>
      </trkpt>
      <trkpt lat="43.72975" lon="6.57462">
        <ele>1060.8</ele>
        <time>2023-09-25T13:45:16Z</time>
      </trkpt>
      <trkpt lat="43.72971" lon="6.57449">
        <ele>1061.4</ele>
        <time>2023-09-25T13:45:27Z</time>
      </trkpt>
      <trkpt lat="43.72969" lon="6.57437">
        <ele>1062</ele>
        <time>2023-09-25T13:45:39Z</time>
      </trkpt>
      <trkpt lat="43.72966" lon="6.57424">
        <ele>1062.8</ele>
        <time>2023-09-25T13:45:50Z</time>
      </trkpt>
      <trkpt lat="43.72964" lon="6.57411">
        <ele>1064.7</ele>
        <time>2023-09-25T13:46:54Z</time>
      </trkpt>
      <trkpt lat="43.72965" lon="6.57398">
        <ele>1065.2</ele>
        <time>2023-09-25T13:47:07Z</time>
      </trkpt>
      <trkpt lat="43.7297" lon="6.5741">
        <ele>1066</ele>
        <time>2023-09-25T13:47:38Z</time>
      </trkpt>
      <trkpt lat="43.72976" lon="6.57419">
        <ele>1067.2</ele>
        <time>2023-09-25T13:47:54Z</time>
      </trkpt>
      <trkpt lat="43.72983" lon="6.57428">
        <ele>1069.1</ele>
        <time>2023-09-25T13:48:09Z</time>
      </trkpt>
      <trkpt lat="43.7299" lon="6.57437">
        <ele>1071.1</ele>
        <time>2023-09-25T13:48:35Z</time>
      </trkpt>
      <trkpt lat="43.72999" lon="6.5744">
        <ele>1071.7</ele>
        <time>2023-09-25T13:49:06Z</time>
      </trkpt>
      <trkpt lat="43.73001" lon="6.57427">
        <ele>1072.9</ele>
        <time>2023-09-25T13:49:33Z</time>
      </trkpt>
      <trkpt lat="43.73" lon="6.57414">
        <ele>1074.7</ele>
        <time>2023-09-25T13:49:46Z</time>
      </trkpt>
      <trkpt lat="43.72999" lon="6.574">
        <ele>1076.7</ele>
        <time>2023-09-25T13:50:01Z</time>
      </trkpt>
      <trkpt lat="43.72994" lon="6.57389">
        <ele>1077.7</ele>
        <time>2023-09-25T13:50:13Z</time>
      </trkpt>
      <trkpt lat="43.72993" lon="6.57376">
        <ele>1078.1</ele>
        <time>2023-09-25T13:50:34Z</time>
      </trkpt>
      <trkpt lat="43.73002" lon="6.5737">
        <ele>1079.5</ele>
        <time>2023-09-25T13:51:50Z</time>
      </trkpt>
      <trkpt lat="43.73005" lon="6.57358">
        <ele>1082.6</ele>
        <time>2023-09-25T13:53:05Z</time>
      </trkpt>
      <trkpt lat="43.73012" lon="6.5735">
        <ele>1085.4</ele>
        <time>2023-09-25T13:55:39Z</time>
      </trkpt>
      <trkpt lat="43.73009" lon="6.57338">
        <ele>1084.8</ele>
        <time>2023-09-25T13:56:41Z</time>
      </trkpt>
      <trkpt lat="43.73012" lon="6.57326">
        <ele>1085.9</ele>
        <time>2023-09-25T13:56:55Z</time>
      </trkpt>
      <trkpt lat="43.73014" lon="6.57314">
        <ele>1087.1</ele>
        <time>2023-09-25T13:57:09Z</time>
      </trkpt>
      <trkpt lat="43.73014" lon="6.57301">
        <ele>1090</ele>
        <time>2023-09-25T13:57:38Z</time>
      </trkpt>
      <trkpt lat="43.73015" lon="6.57289">
        <ele>1091.1</ele>
        <time>2023-09-25T13:57:55Z</time>
      </trkpt>
      <trkpt lat="43.73015" lon="6.57276">
        <ele>1092.2</ele>
        <time>2023-09-25T13:58:13Z</time>
      </trkpt>
      <trkpt lat="43.73016" lon="6.57263">
        <ele>1092.4</ele>
        <time>2023-09-25T13:58:25Z</time>
      </trkpt>
      <trkpt lat="43.73012" lon="6.57251">
        <ele>1091.8</ele>
        <time>2023-09-25T13:58:56Z</time>
      </trkpt>
      <trkpt lat="43.73008" lon="6.57262">
        <ele>1088.1</ele>
        <time>2023-09-25T14:00:54Z</time>
      </trkpt>
      <trkpt lat="43.73004" lon="6.5725">
        <ele>1086.6</ele>
        <time>2023-09-25T14:01:28Z</time>
      </trkpt>
      <trkpt lat="43.72997" lon="6.57258">
        <ele>1081.4</ele>
        <time>2023-09-25T14:02:49Z</time>
      </trkpt>
      <trkpt lat="43.72992" lon="6.57247">
        <ele>1077.8</ele>
        <time>2023-09-25T14:04:32Z</time>
      </trkpt>
      <trkpt lat="43.72991" lon="6.57235">
        <ele>1076.6</ele>
        <time>2023-09-25T14:06:07Z</time>
      </trkpt>
      <trkpt lat="43.72994" lon="6.57223">
        <ele>1075.5</ele>
        <time>2023-09-25T14:07:06Z</time>
      </trkpt>
      <trkpt lat="43.72993" lon="6.5721">
        <ele>1074.5</ele>
        <time>2023-09-25T14:07:34Z</time>
      </trkpt>
      <trkpt lat="43.72988" lon="6.57199">
        <ele>1071.2</ele>
        <time>2023-09-25T14:08:09Z</time>
      </trkpt>
      <trkpt lat="43.72984" lon="6.57188">
        <ele>1070.1</ele>
        <time>2023-09-25T14:08:43Z</time>
      </trkpt>
      <trkpt lat="43.72982" lon="6.57175">
        <ele>1068.3</ele>
        <time>2023-09-25T14:09:07Z</time>
      </trkpt>
      <trkpt lat="43.72985" lon="6.57163">
        <ele>1067.6</ele>
        <time>2023-09-25T14:09:19Z</time>
      </trkpt>
      <trkpt lat="43.72987" lon="6.57151">
        <ele>1066.6</ele>
        <time>2023-09-25T14:09:35Z</time>
      </trkpt>
      <trkpt lat="43.7299" lon="6.57138">
        <ele>1065.9</ele>
        <time>2023-09-25T14:09:48Z</time>
      </trkpt>
      <trkpt lat="43.72993" lon="6.57125">
        <ele>1065.9</ele>
        <time>2023-09-25T14:10:00Z</time>
      </trkpt>
      <trkpt lat="43.72997" lon="6.57113">
        <ele>1066.6</ele>
        <time>2023-09-25T14:10:12Z</time>
      </trkpt>
      <trkpt lat="43.73001" lon="6.57101">
        <ele>1067.3</ele>
        <time>2023-09-25T14:10:26Z</time>
      </trkpt>
      <trkpt lat="43.73005" lon="6.5709">
        <ele>1067.8</ele>
        <time>2023-09-25T14:10:42Z</time>
      </trkpt>
      <trkpt lat="43.73013" lon="6.57082">
        <ele>1066.9</ele>
        <time>2023-09-25T14:11:14Z</time>
      </trkpt>
      <trkpt lat="43.73011" lon="6.57082">
        <ele>1065.2</ele>
        <time>2023-09-25T14:13:24Z</time>
      </trkpt>
    </trkseg>
  </trk>
</gpx>